<?xml version="1.0" encoding="UTF-8" standalone="no" ?>
<gpx xmlns="http://www.topografix.com/GPX/1/1" xmlns:xsi="http://www.w3.org/2001/XMLSchema-instance" xsi:schemaLocation="http://www.topografix.com/GPX/1/1 http://www.topografix.com/GPX/1/1/gpx.xsd" version="1.1" creator="VisuGPX - https://www.visugpx.com">
  <metadata>
    <name>Château de Labastide-Vassals</name>
    <desc><![CDATA[Château de Labastide-vassals à partir de saint-grégoire.]]></desc>
  </metadata>
  <wpt lat="43.96169" lon="2.26066">
    <ele>333</ele>
    <name><![CDATA[Parking de l'église]]></name>
  </wpt>
  <wpt lat="43.96906" lon="2.25916">
    <ele>314</ele>
    <name><![CDATA[Large piste de terre à droite]]></name>
  </wpt>
  <wpt lat="43.97521" lon="2.26291">
    <ele>330</ele>
    <name><![CDATA[Calvaire de Bourrel]]></name>
  </wpt>
  <wpt lat="43.97266" lon="2.27541">
    <ele>365</ele>
    <name><![CDATA[Puech Merlhou]]></name>
  </wpt>
  <wpt lat="43.96645" lon="2.27536">
    <ele>352</ele>
    <name><![CDATA[Croisement avec le sentier du retour vers le haras]]></name>
  </wpt>
  <wpt lat="43.96863" lon="2.27094">
    <ele>330</ele>
    <name><![CDATA[À gauche aux quatre chemins]]></name>
  </wpt>
  <wpt lat="43.95506" lon="2.278">
    <ele>222</ele>
    <name><![CDATA[Gué de pierres]]></name>
  </wpt>
  <wpt lat="43.9533" lon="2.27573">
    <ele>242</ele>
    <name><![CDATA[À gauche à la fourche]]></name>
  </wpt>
  <wpt lat="43.95105" lon="2.27199">
    <ele>202</ele>
    <name><![CDATA[Virage en épingle à droite]]></name>
  </wpt>
  <wpt lat="43.95168" lon="2.27071">
    <ele>219</ele>
    <name><![CDATA[Virage à droite]]></name>
  </wpt>
  <wpt lat="43.9559" lon="2.26941">
    <ele>291</ele>
    <name><![CDATA[Bifurcation à  gauche]]></name>
  </wpt>
  <wpt lat="43.96169" lon="2.26066">
    <ele>333</ele>
    <name><![CDATA[Parking de l'église]]></name>
  </wpt>
  <trk>
    <name><![CDATA[Sentier du Château de Labastide-Vassals]]></name>
    <extensions>
      <line xmlns="http://www.topografix.com/GPX/gpx_style/0/2">
        <color>0000FF</color>
        <width>4</width>
      </line>
    </extensions>
    <trkseg>
      <trkpt lat="43.96169" lon="2.26066">
        <ele>333</ele>
        <time>2016-09-11T07:02:03.000Z</time>
      </trkpt>
      <trkpt lat="43.96178" lon="2.26066">
        <ele>334</ele>
        <time>2016-09-11T07:02:42.000Z</time>
      </trkpt>
      <trkpt lat="43.96185" lon="2.26065">
        <ele>334</ele>
        <time>2016-09-11T07:02:50.000Z</time>
      </trkpt>
      <trkpt lat="43.96194" lon="2.26067">
        <ele>334</ele>
        <time>2016-09-11T07:03:01.000Z</time>
      </trkpt>
      <trkpt lat="43.96203" lon="2.2607">
        <ele>334</ele>
        <time>2016-09-11T07:03:11.000Z</time>
      </trkpt>
      <trkpt lat="43.96207" lon="2.26061">
        <ele>334</ele>
        <time>2016-09-11T07:02:59.000Z</time>
      </trkpt>
      <trkpt lat="43.96207" lon="2.26052">
        <ele>334</ele>
        <time>2016-09-11T07:03:04.000Z</time>
      </trkpt>
      <trkpt lat="43.96209" lon="2.26043">
        <ele>333</ele>
        <time>2016-09-11T07:03:12.000Z</time>
      </trkpt>
      <trkpt lat="43.96214" lon="2.26038">
        <ele>333</ele>
        <time>2016-09-11T07:03:14.000Z</time>
      </trkpt>
      <trkpt lat="43.96224" lon="2.26041">
        <ele>333</ele>
        <time>2016-09-11T07:03:25.000Z</time>
      </trkpt>
      <trkpt lat="43.96235" lon="2.26044">
        <ele>332</ele>
        <time>2016-09-11T07:03:32.000Z</time>
      </trkpt>
      <trkpt lat="43.9624" lon="2.26047">
        <ele>332</ele>
        <time>2016-09-11T07:03:37.000Z</time>
      </trkpt>
      <trkpt lat="43.96247" lon="2.26049">
        <ele>331</ele>
        <time>2016-09-11T07:03:46.000Z</time>
      </trkpt>
      <trkpt lat="43.96258" lon="2.26051">
        <ele>330</ele>
        <time>2016-09-11T07:03:55.000Z</time>
      </trkpt>
      <trkpt lat="43.96264" lon="2.2605">
        <ele>330</ele>
        <time>2016-09-11T07:04:02.000Z</time>
      </trkpt>
      <trkpt lat="43.96271" lon="2.26053">
        <ele>329</ele>
        <time>2016-09-11T07:04:04.000Z</time>
      </trkpt>
      <trkpt lat="43.96273" lon="2.26052">
        <ele>329</ele>
        <time>2016-09-11T07:04:06.000Z</time>
      </trkpt>
      <trkpt lat="43.96279" lon="2.26048">
        <ele>329</ele>
        <time>2016-09-11T07:04:13.000Z</time>
      </trkpt>
      <trkpt lat="43.96284" lon="2.26041">
        <ele>329</ele>
        <time>2016-09-11T07:04:16.000Z</time>
      </trkpt>
      <trkpt lat="43.96287" lon="2.26032">
        <ele>328</ele>
        <time>2016-09-11T07:04:24.000Z</time>
      </trkpt>
      <trkpt lat="43.96294" lon="2.26028">
        <ele>328</ele>
        <time>2016-09-11T07:04:26.000Z</time>
      </trkpt>
      <trkpt lat="43.96303" lon="2.26029">
        <ele>328</ele>
        <time>2016-09-11T07:04:34.000Z</time>
      </trkpt>
      <trkpt lat="43.96318" lon="2.26034">
        <ele>327</ele>
        <time>2016-09-11T07:04:46.000Z</time>
      </trkpt>
      <trkpt lat="43.96331" lon="2.26037">
        <ele>326</ele>
        <time>2016-09-11T07:04:56.000Z</time>
      </trkpt>
      <trkpt lat="43.9634" lon="2.2604">
        <ele>325</ele>
        <time>2016-09-11T07:05:04.000Z</time>
      </trkpt>
      <trkpt lat="43.9635" lon="2.26044">
        <ele>324</ele>
        <time>2016-09-11T07:05:14.000Z</time>
      </trkpt>
      <trkpt lat="43.96359" lon="2.26047">
        <ele>322</ele>
        <time>2016-09-11T07:05:22.000Z</time>
      </trkpt>
      <trkpt lat="43.96371" lon="2.26049">
        <ele>322</ele>
        <time>2016-09-11T07:05:32.000Z</time>
      </trkpt>
      <trkpt lat="43.96383" lon="2.26047">
        <ele>321</ele>
        <time>2016-09-11T07:05:41.000Z</time>
      </trkpt>
      <trkpt lat="43.96394" lon="2.2604">
        <ele>320</ele>
        <time>2016-09-11T07:05:51.000Z</time>
      </trkpt>
      <trkpt lat="43.96403" lon="2.26031">
        <ele>319</ele>
        <time>2016-09-11T07:06:01.000Z</time>
      </trkpt>
      <trkpt lat="43.96412" lon="2.26021">
        <ele>319</ele>
        <time>2016-09-11T07:06:12.000Z</time>
      </trkpt>
      <trkpt lat="43.96424" lon="2.26011">
        <ele>318</ele>
        <time>2016-09-11T07:06:24.000Z</time>
      </trkpt>
      <trkpt lat="43.96432" lon="2.26004">
        <ele>317</ele>
        <time>2016-09-11T07:06:33.000Z</time>
      </trkpt>
      <trkpt lat="43.96445" lon="2.25994">
        <ele>316</ele>
        <time>2016-09-11T07:06:45.000Z</time>
      </trkpt>
      <trkpt lat="43.96456" lon="2.25985">
        <ele>315</ele>
        <time>2016-09-11T07:06:56.000Z</time>
      </trkpt>
      <trkpt lat="43.96467" lon="2.25977">
        <ele>314</ele>
        <time>2016-09-11T07:07:06.000Z</time>
      </trkpt>
      <trkpt lat="43.96476" lon="2.25969">
        <ele>314</ele>
        <time>2016-09-11T07:07:16.000Z</time>
      </trkpt>
      <trkpt lat="43.96487" lon="2.25961">
        <ele>314</ele>
        <time>2016-09-11T07:07:26.000Z</time>
      </trkpt>
      <trkpt lat="43.96488" lon="2.2596">
        <ele>314</ele>
        <time>2016-09-11T07:07:27.000Z</time>
      </trkpt>
      <trkpt lat="43.96498" lon="2.25952">
        <ele>314</ele>
        <time>2016-09-11T07:07:37.000Z</time>
      </trkpt>
      <trkpt lat="43.96509" lon="2.25942">
        <ele>313</ele>
        <time>2016-09-11T07:07:48.000Z</time>
      </trkpt>
      <trkpt lat="43.96519" lon="2.25932">
        <ele>313</ele>
        <time>2016-09-11T07:07:59.000Z</time>
      </trkpt>
      <trkpt lat="43.96528" lon="2.25924">
        <ele>313</ele>
        <time>2016-09-11T07:08:09.000Z</time>
      </trkpt>
      <trkpt lat="43.96537" lon="2.25915">
        <ele>312</ele>
        <time>2016-09-11T07:08:18.000Z</time>
      </trkpt>
      <trkpt lat="43.9655" lon="2.2591">
        <ele>312</ele>
        <time>2016-09-11T07:08:29.000Z</time>
      </trkpt>
      <trkpt lat="43.96562" lon="2.25912">
        <ele>312</ele>
        <time>2016-09-11T07:08:40.000Z</time>
      </trkpt>
      <trkpt lat="43.96575" lon="2.25918">
        <ele>311</ele>
        <time>2016-09-11T07:08:51.000Z</time>
      </trkpt>
      <trkpt lat="43.96587" lon="2.25923">
        <ele>310</ele>
        <time>2016-09-11T07:09:01.000Z</time>
      </trkpt>
      <trkpt lat="43.96599" lon="2.25928">
        <ele>309</ele>
        <time>2016-09-11T07:09:13.000Z</time>
      </trkpt>
      <trkpt lat="43.96612" lon="2.25932">
        <ele>309</ele>
        <time>2016-09-11T07:09:24.000Z</time>
      </trkpt>
      <trkpt lat="43.96627" lon="2.25938">
        <ele>307</ele>
        <time>2016-09-11T07:09:36.000Z</time>
      </trkpt>
      <trkpt lat="43.96641" lon="2.25942">
        <ele>306</ele>
        <time>2016-09-11T07:09:47.000Z</time>
      </trkpt>
      <trkpt lat="43.96652" lon="2.25944">
        <ele>305</ele>
        <time>2016-09-11T07:09:56.000Z</time>
      </trkpt>
      <trkpt lat="43.96664" lon="2.25944">
        <ele>305</ele>
        <time>2016-09-11T07:10:07.000Z</time>
      </trkpt>
      <trkpt lat="43.96674" lon="2.25941">
        <ele>305</ele>
        <time>2016-09-11T07:10:16.000Z</time>
      </trkpt>
      <trkpt lat="43.96684" lon="2.25939">
        <ele>304</ele>
        <time>2016-09-11T07:10:25.000Z</time>
      </trkpt>
      <trkpt lat="43.96694" lon="2.25938">
        <ele>303</ele>
        <time>2016-09-11T07:10:34.000Z</time>
      </trkpt>
      <trkpt lat="43.96707" lon="2.25937">
        <ele>303</ele>
        <time>2016-09-11T07:10:45.000Z</time>
      </trkpt>
      <trkpt lat="43.96718" lon="2.25938">
        <ele>304</ele>
        <time>2016-09-11T07:10:54.000Z</time>
      </trkpt>
      <trkpt lat="43.96729" lon="2.25935">
        <ele>305</ele>
        <time>2016-09-11T07:11:02.000Z</time>
      </trkpt>
      <trkpt lat="43.96739" lon="2.25932">
        <ele>305</ele>
        <time>2016-09-11T07:11:10.000Z</time>
      </trkpt>
      <trkpt lat="43.96751" lon="2.25929">
        <ele>306</ele>
        <time>2016-09-11T07:11:20.000Z</time>
      </trkpt>
      <trkpt lat="43.96761" lon="2.25926">
        <ele>308</ele>
        <time>2016-09-11T07:11:29.000Z</time>
      </trkpt>
      <trkpt lat="43.96772" lon="2.25923">
        <ele>309</ele>
        <time>2016-09-11T07:11:39.000Z</time>
      </trkpt>
      <trkpt lat="43.96784" lon="2.25919">
        <ele>310</ele>
        <time>2016-09-11T07:11:50.000Z</time>
      </trkpt>
      <trkpt lat="43.96798" lon="2.25918">
        <ele>310</ele>
        <time>2016-09-11T07:12:02.000Z</time>
      </trkpt>
      <trkpt lat="43.96808" lon="2.25916">
        <ele>311</ele>
        <time>2016-09-11T07:12:11.000Z</time>
      </trkpt>
      <trkpt lat="43.96822" lon="2.25915">
        <ele>311</ele>
        <time>2016-09-11T07:12:23.000Z</time>
      </trkpt>
      <trkpt lat="43.96834" lon="2.25914">
        <ele>312</ele>
        <time>2016-09-11T07:12:33.000Z</time>
      </trkpt>
      <trkpt lat="43.96835" lon="2.25915">
        <ele>312</ele>
        <time>2016-09-11T07:12:34.000Z</time>
      </trkpt>
      <trkpt lat="43.9685" lon="2.25916">
        <ele>312</ele>
        <time>2016-09-11T07:12:48.000Z</time>
      </trkpt>
      <trkpt lat="43.96865" lon="2.25917">
        <ele>314</ele>
        <time>2016-09-11T07:13:00.000Z</time>
      </trkpt>
      <trkpt lat="43.96876" lon="2.25918">
        <ele>314</ele>
        <time>2016-09-11T07:13:09.000Z</time>
      </trkpt>
      <trkpt lat="43.96886" lon="2.25917">
        <ele>314</ele>
        <time>2016-09-11T07:13:17.000Z</time>
      </trkpt>
      <trkpt lat="43.96897" lon="2.25919">
        <ele>314</ele>
        <time>2016-09-11T07:13:27.000Z</time>
      </trkpt>
      <trkpt lat="43.96906" lon="2.25916">
        <ele>314</ele>
        <time>2016-09-11T07:13:29.000Z</time>
      </trkpt>
      <trkpt lat="43.96902" lon="2.25929">
        <ele>314</ele>
        <time>2016-09-11T07:13:38.000Z</time>
      </trkpt>
      <trkpt lat="43.969" lon="2.25939">
        <ele>314</ele>
        <time>2016-09-11T07:13:46.000Z</time>
      </trkpt>
      <trkpt lat="43.96895" lon="2.25951">
        <ele>315</ele>
        <time>2016-09-11T07:13:57.000Z</time>
      </trkpt>
      <trkpt lat="43.96889" lon="2.25965">
        <ele>315</ele>
        <time>2016-09-11T07:14:09.000Z</time>
      </trkpt>
      <trkpt lat="43.96885" lon="2.25976">
        <ele>316</ele>
        <time>2016-09-11T07:14:17.000Z</time>
      </trkpt>
      <trkpt lat="43.96882" lon="2.25984">
        <ele>316</ele>
        <time>2016-09-11T07:14:25.000Z</time>
      </trkpt>
      <trkpt lat="43.96878" lon="2.25994">
        <ele>316</ele>
        <time>2016-09-11T07:14:34.000Z</time>
      </trkpt>
      <trkpt lat="43.96877" lon="2.26002">
        <ele>317</ele>
        <time>2016-09-11T07:14:41.000Z</time>
      </trkpt>
      <trkpt lat="43.96874" lon="2.26014">
        <ele>317</ele>
        <time>2016-09-11T07:14:50.000Z</time>
      </trkpt>
      <trkpt lat="43.96872" lon="2.2603">
        <ele>318</ele>
        <time>2016-09-11T07:15:00.000Z</time>
      </trkpt>
      <trkpt lat="43.96871" lon="2.26041">
        <ele>318</ele>
        <time>2016-09-11T07:15:08.000Z</time>
      </trkpt>
      <trkpt lat="43.96868" lon="2.26055">
        <ele>318</ele>
        <time>2016-09-11T07:15:17.000Z</time>
      </trkpt>
      <trkpt lat="43.96867" lon="2.26069">
        <ele>319</ele>
        <time>2016-09-11T07:15:27.000Z</time>
      </trkpt>
      <trkpt lat="43.96867" lon="2.26083">
        <ele>319</ele>
        <time>2016-09-11T07:15:38.000Z</time>
      </trkpt>
      <trkpt lat="43.96868" lon="2.26092">
        <ele>319</ele>
        <time>2016-09-11T07:15:46.000Z</time>
      </trkpt>
      <trkpt lat="43.96868" lon="2.26102">
        <ele>320</ele>
        <time>2016-09-11T07:15:54.000Z</time>
      </trkpt>
      <trkpt lat="43.96868" lon="2.26115">
        <ele>320</ele>
        <time>2016-09-11T07:16:03.000Z</time>
      </trkpt>
      <trkpt lat="43.96868" lon="2.26127">
        <ele>320</ele>
        <time>2016-09-11T07:16:13.000Z</time>
      </trkpt>
      <trkpt lat="43.96868" lon="2.2614">
        <ele>321</ele>
        <time>2016-09-11T07:16:22.000Z</time>
      </trkpt>
      <trkpt lat="43.96869" lon="2.26152">
        <ele>321</ele>
        <time>2016-09-11T07:16:31.000Z</time>
      </trkpt>
      <trkpt lat="43.9687" lon="2.26166">
        <ele>321</ele>
        <time>2016-09-11T07:16:40.000Z</time>
      </trkpt>
      <trkpt lat="43.96871" lon="2.26179">
        <ele>321</ele>
        <time>2016-09-11T07:16:49.000Z</time>
      </trkpt>
      <trkpt lat="43.96872" lon="2.26191">
        <ele>321</ele>
        <time>2016-09-11T07:16:57.000Z</time>
      </trkpt>
      <trkpt lat="43.96872" lon="2.26202">
        <ele>322</ele>
        <time>2016-09-11T07:17:06.000Z</time>
      </trkpt>
      <trkpt lat="43.96872" lon="2.26218">
        <ele>322</ele>
        <time>2016-09-11T07:17:16.000Z</time>
      </trkpt>
      <trkpt lat="43.96871" lon="2.26234">
        <ele>322</ele>
        <time>2016-09-11T07:17:25.000Z</time>
      </trkpt>
      <trkpt lat="43.96869" lon="2.26247">
        <ele>323</ele>
        <time>2016-09-11T07:17:33.000Z</time>
      </trkpt>
      <trkpt lat="43.96868" lon="2.26259">
        <ele>323</ele>
        <time>2016-09-11T07:17:41.000Z</time>
      </trkpt>
      <trkpt lat="43.96866" lon="2.26276">
        <ele>323</ele>
        <time>2016-09-11T07:17:52.000Z</time>
      </trkpt>
      <trkpt lat="43.96863" lon="2.2629">
        <ele>324</ele>
        <time>2016-09-11T07:18:02.000Z</time>
      </trkpt>
      <trkpt lat="43.96862" lon="2.26303">
        <ele>324</ele>
        <time>2016-09-11T07:18:11.000Z</time>
      </trkpt>
      <trkpt lat="43.96861" lon="2.26316">
        <ele>325</ele>
        <time>2016-09-11T07:18:21.000Z</time>
      </trkpt>
      <trkpt lat="43.9686" lon="2.26325">
        <ele>325</ele>
        <time>2016-09-11T07:18:28.000Z</time>
      </trkpt>
      <trkpt lat="43.96859" lon="2.26334">
        <ele>325</ele>
        <time>2016-09-11T07:18:35.000Z</time>
      </trkpt>
      <trkpt lat="43.96857" lon="2.26345">
        <ele>325</ele>
        <time>2016-09-11T07:18:43.000Z</time>
      </trkpt>
      <trkpt lat="43.96856" lon="2.26356">
        <ele>326</ele>
        <time>2016-09-11T07:18:51.000Z</time>
      </trkpt>
      <trkpt lat="43.96855" lon="2.26364">
        <ele>326</ele>
        <time>2016-09-11T07:18:58.000Z</time>
      </trkpt>
      <trkpt lat="43.96854" lon="2.26373">
        <ele>326</ele>
        <time>2016-09-11T07:19:06.000Z</time>
      </trkpt>
      <trkpt lat="43.96853" lon="2.26383">
        <ele>327</ele>
        <time>2016-09-11T07:19:14.000Z</time>
      </trkpt>
      <trkpt lat="43.96852" lon="2.26394">
        <ele>327</ele>
        <time>2016-09-11T07:19:22.000Z</time>
      </trkpt>
      <trkpt lat="43.96851" lon="2.26402">
        <ele>327</ele>
        <time>2016-09-11T07:19:28.000Z</time>
      </trkpt>
      <trkpt lat="43.96853" lon="2.26415">
        <ele>328</ele>
        <time>2016-09-11T07:19:38.000Z</time>
      </trkpt>
      <trkpt lat="43.96858" lon="2.26421">
        <ele>328</ele>
        <time>2016-09-11T07:19:46.000Z</time>
      </trkpt>
      <trkpt lat="43.96867" lon="2.26425">
        <ele>328</ele>
        <time>2016-09-11T07:19:54.000Z</time>
      </trkpt>
      <trkpt lat="43.96877" lon="2.26434">
        <ele>327</ele>
        <time>2016-09-11T07:20:03.000Z</time>
      </trkpt>
      <trkpt lat="43.96884" lon="2.26442">
        <ele>327</ele>
        <time>2016-09-11T07:20:11.000Z</time>
      </trkpt>
      <trkpt lat="43.96892" lon="2.26453">
        <ele>326</ele>
        <time>2016-09-11T07:20:21.000Z</time>
      </trkpt>
      <trkpt lat="43.96897" lon="2.26463">
        <ele>326</ele>
        <time>2016-09-11T07:20:29.000Z</time>
      </trkpt>
      <trkpt lat="43.96904" lon="2.26479">
        <ele>325</ele>
        <time>2016-09-11T07:20:39.000Z</time>
      </trkpt>
      <trkpt lat="43.96909" lon="2.26498">
        <ele>326</ele>
        <time>2016-09-11T07:20:49.000Z</time>
      </trkpt>
      <trkpt lat="43.96912" lon="2.26513">
        <ele>326</ele>
        <time>2016-09-11T07:20:57.000Z</time>
      </trkpt>
      <trkpt lat="43.96913" lon="2.26525">
        <ele>326</ele>
        <time>2016-09-11T07:21:06.000Z</time>
      </trkpt>
      <trkpt lat="43.96912" lon="2.26532">
        <ele>327</ele>
        <time>2016-09-11T07:21:12.000Z</time>
      </trkpt>
      <trkpt lat="43.96912" lon="2.26533">
        <ele>327</ele>
        <time>2016-09-11T07:21:13.000Z</time>
      </trkpt>
      <trkpt lat="43.96911" lon="2.26541">
        <ele>327</ele>
        <time>2016-09-11T07:21:18.000Z</time>
      </trkpt>
      <trkpt lat="43.96909" lon="2.26553">
        <ele>327</ele>
        <time>2016-09-11T07:21:27.000Z</time>
      </trkpt>
      <trkpt lat="43.96906" lon="2.26564">
        <ele>328</ele>
        <time>2016-09-11T07:21:35.000Z</time>
      </trkpt>
      <trkpt lat="43.96901" lon="2.26584">
        <ele>329</ele>
        <time>2016-09-11T07:21:46.000Z</time>
      </trkpt>
      <trkpt lat="43.96898" lon="2.26601">
        <ele>330</ele>
        <time>2016-09-11T07:21:56.000Z</time>
      </trkpt>
      <trkpt lat="43.96897" lon="2.26614">
        <ele>331</ele>
        <time>2016-09-11T07:22:03.000Z</time>
      </trkpt>
      <trkpt lat="43.96897" lon="2.26624">
        <ele>331</ele>
        <time>2016-09-11T07:22:09.000Z</time>
      </trkpt>
      <trkpt lat="43.96897" lon="2.2663">
        <ele>331</ele>
        <time>2016-09-11T07:22:12.000Z</time>
      </trkpt>
      <trkpt lat="43.969" lon="2.26636">
        <ele>332</ele>
        <time>2016-09-11T07:22:16.000Z</time>
      </trkpt>
      <trkpt lat="43.96903" lon="2.2665">
        <ele>333</ele>
        <time>2016-09-11T07:22:24.000Z</time>
      </trkpt>
      <trkpt lat="43.96903" lon="2.26651">
        <ele>333</ele>
        <time>2016-09-11T07:22:25.000Z</time>
      </trkpt>
      <trkpt lat="43.96906" lon="2.26664">
        <ele>334</ele>
        <time>2016-09-11T07:22:33.000Z</time>
      </trkpt>
      <trkpt lat="43.96909" lon="2.26678">
        <ele>334</ele>
        <time>2016-09-11T07:22:42.000Z</time>
      </trkpt>
      <trkpt lat="43.96911" lon="2.26685">
        <ele>335</ele>
        <time>2016-09-11T07:22:47.000Z</time>
      </trkpt>
      <trkpt lat="43.96914" lon="2.267">
        <ele>335</ele>
        <time>2016-09-11T07:22:56.000Z</time>
      </trkpt>
      <trkpt lat="43.96915" lon="2.26706">
        <ele>336</ele>
        <time>2016-09-11T07:23:00.000Z</time>
      </trkpt>
      <trkpt lat="43.96916" lon="2.26707">
        <ele>336</ele>
        <time>2016-09-11T07:23:05.000Z</time>
      </trkpt>
      <trkpt lat="43.96919" lon="2.26724">
        <ele>336</ele>
        <time>2016-09-11T07:23:13.000Z</time>
      </trkpt>
      <trkpt lat="43.9692" lon="2.26735">
        <ele>336</ele>
        <time>2016-09-11T07:23:22.000Z</time>
      </trkpt>
      <trkpt lat="43.96928" lon="2.26734">
        <ele>336</ele>
        <time>2016-09-11T07:23:21.000Z</time>
      </trkpt>
      <trkpt lat="43.96944" lon="2.26738">
        <ele>336</ele>
        <time>2016-09-11T07:23:31.000Z</time>
      </trkpt>
      <trkpt lat="43.96958" lon="2.2674">
        <ele>335</ele>
        <time>2016-09-11T07:23:40.000Z</time>
      </trkpt>
      <trkpt lat="43.96973" lon="2.26739">
        <ele>335</ele>
        <time>2016-09-11T07:23:50.000Z</time>
      </trkpt>
      <trkpt lat="43.96988" lon="2.26736">
        <ele>334</ele>
        <time>2016-09-11T07:23:59.000Z</time>
      </trkpt>
      <trkpt lat="43.97007" lon="2.2673">
        <ele>334</ele>
        <time>2016-09-11T07:24:12.000Z</time>
      </trkpt>
      <trkpt lat="43.97021" lon="2.26725">
        <ele>334</ele>
        <time>2016-09-11T07:24:21.000Z</time>
      </trkpt>
      <trkpt lat="43.97035" lon="2.26721">
        <ele>333</ele>
        <time>2016-09-11T07:24:26.000Z</time>
      </trkpt>
      <trkpt lat="43.9705" lon="2.2671">
        <ele>333</ele>
        <time>2016-09-11T07:24:40.000Z</time>
      </trkpt>
      <trkpt lat="43.9706" lon="2.26695">
        <ele>333</ele>
        <time>2016-09-11T07:24:50.000Z</time>
      </trkpt>
      <trkpt lat="43.97068" lon="2.26673">
        <ele>333</ele>
        <time>2016-09-11T07:25:01.000Z</time>
      </trkpt>
      <trkpt lat="43.97077" lon="2.26651">
        <ele>333</ele>
        <time>2016-09-11T07:25:13.000Z</time>
      </trkpt>
      <trkpt lat="43.97085" lon="2.26633">
        <ele>333</ele>
        <time>2016-09-11T07:25:24.000Z</time>
      </trkpt>
      <trkpt lat="43.97097" lon="2.26614">
        <ele>334</ele>
        <time>2016-09-11T07:25:55.000Z</time>
      </trkpt>
      <trkpt lat="43.97103" lon="2.26603">
        <ele>335</ele>
        <time>2016-09-11T07:25:34.000Z</time>
      </trkpt>
      <trkpt lat="43.97112" lon="2.2659">
        <ele>336</ele>
        <time>2016-09-11T07:25:46.000Z</time>
      </trkpt>
      <trkpt lat="43.97124" lon="2.26567">
        <ele>337</ele>
        <time>2016-09-11T07:25:57.000Z</time>
      </trkpt>
      <trkpt lat="43.97133" lon="2.26549">
        <ele>337</ele>
        <time>2016-09-11T07:26:07.000Z</time>
      </trkpt>
      <trkpt lat="43.97145" lon="2.26533">
        <ele>338</ele>
        <time>2016-09-11T07:26:18.000Z</time>
      </trkpt>
      <trkpt lat="43.97154" lon="2.26514">
        <ele>337</ele>
        <time>2016-09-11T07:26:28.000Z</time>
      </trkpt>
      <trkpt lat="43.97166" lon="2.26498">
        <ele>337</ele>
        <time>2016-09-11T07:26:38.000Z</time>
      </trkpt>
      <trkpt lat="43.97175" lon="2.26482">
        <ele>337</ele>
        <time>2016-09-11T07:26:54.000Z</time>
      </trkpt>
      <trkpt lat="43.97179" lon="2.26475">
        <ele>337</ele>
        <time>2016-09-11T07:26:51.000Z</time>
      </trkpt>
      <trkpt lat="43.97191" lon="2.26455">
        <ele>336</ele>
        <time>2016-09-11T07:27:03.000Z</time>
      </trkpt>
      <trkpt lat="43.972" lon="2.26438">
        <ele>336</ele>
        <time>2016-09-11T07:27:13.000Z</time>
      </trkpt>
      <trkpt lat="43.97207" lon="2.26419">
        <ele>335</ele>
        <time>2016-09-11T07:27:24.000Z</time>
      </trkpt>
      <trkpt lat="43.97212" lon="2.26398">
        <ele>334</ele>
        <time>2016-09-11T07:27:36.000Z</time>
      </trkpt>
      <trkpt lat="43.97218" lon="2.2638">
        <ele>334</ele>
        <time>2016-09-11T07:27:46.000Z</time>
      </trkpt>
      <trkpt lat="43.97219" lon="2.2636">
        <ele>333</ele>
        <time>2016-09-11T07:27:55.000Z</time>
      </trkpt>
      <trkpt lat="43.97224" lon="2.26346">
        <ele>333</ele>
        <time>2016-09-11T07:28:08.000Z</time>
      </trkpt>
      <trkpt lat="43.97229" lon="2.26334">
        <ele>333</ele>
        <time>2016-09-11T07:28:05.000Z</time>
      </trkpt>
      <trkpt lat="43.97236" lon="2.26327">
        <ele>332</ele>
        <time>2016-09-11T07:28:13.000Z</time>
      </trkpt>
      <trkpt lat="43.97244" lon="2.26321">
        <ele>332</ele>
        <time>2016-09-11T07:28:21.000Z</time>
      </trkpt>
      <trkpt lat="43.97248" lon="2.26317">
        <ele>332</ele>
        <time>2016-09-11T07:28:25.000Z</time>
      </trkpt>
      <trkpt lat="43.97254" lon="2.26312">
        <ele>331</ele>
        <time>2016-09-11T07:28:33.000Z</time>
      </trkpt>
      <trkpt lat="43.97261" lon="2.26314">
        <ele>330</ele>
        <time>2016-09-11T07:28:34.000Z</time>
      </trkpt>
      <trkpt lat="43.97272" lon="2.26314">
        <ele>330</ele>
        <time>2016-09-11T07:28:41.000Z</time>
      </trkpt>
      <trkpt lat="43.97286" lon="2.26316">
        <ele>329</ele>
        <time>2016-09-11T07:28:50.000Z</time>
      </trkpt>
      <trkpt lat="43.97298" lon="2.26318">
        <ele>328</ele>
        <time>2016-09-11T07:28:58.000Z</time>
      </trkpt>
      <trkpt lat="43.97312" lon="2.2632">
        <ele>326</ele>
        <time>2016-09-11T07:29:07.000Z</time>
      </trkpt>
      <trkpt lat="43.97325" lon="2.2632">
        <ele>325</ele>
        <time>2016-09-11T07:29:17.000Z</time>
      </trkpt>
      <trkpt lat="43.97335" lon="2.26321">
        <ele>324</ele>
        <time>2016-09-11T07:29:25.000Z</time>
      </trkpt>
      <trkpt lat="43.97351" lon="2.26318">
        <ele>323</ele>
        <time>2016-09-11T07:29:36.000Z</time>
      </trkpt>
      <trkpt lat="43.97362" lon="2.26316">
        <ele>323</ele>
        <time>2016-09-11T07:29:45.000Z</time>
      </trkpt>
      <trkpt lat="43.97374" lon="2.2631">
        <ele>323</ele>
        <time>2016-09-11T07:29:56.000Z</time>
      </trkpt>
      <trkpt lat="43.97384" lon="2.26305">
        <ele>324</ele>
        <time>2016-09-11T07:30:05.000Z</time>
      </trkpt>
      <trkpt lat="43.97396" lon="2.26301">
        <ele>325</ele>
        <time>2016-09-11T07:30:15.000Z</time>
      </trkpt>
      <trkpt lat="43.97407" lon="2.26298">
        <ele>326</ele>
        <time>2016-09-11T07:30:23.000Z</time>
      </trkpt>
      <trkpt lat="43.9742" lon="2.26295">
        <ele>327</ele>
        <time>2016-09-11T07:30:33.000Z</time>
      </trkpt>
      <trkpt lat="43.97429" lon="2.26291">
        <ele>328</ele>
        <time>2016-09-11T07:30:43.000Z</time>
      </trkpt>
      <trkpt lat="43.97439" lon="2.26288">
        <ele>329</ele>
        <time>2016-09-11T07:30:52.000Z</time>
      </trkpt>
      <trkpt lat="43.97447" lon="2.26284">
        <ele>330</ele>
        <time>2016-09-11T07:31:00.000Z</time>
      </trkpt>
      <trkpt lat="43.97457" lon="2.26281">
        <ele>330</ele>
        <time>2016-09-11T07:31:08.000Z</time>
      </trkpt>
      <trkpt lat="43.9747" lon="2.26279">
        <ele>330</ele>
        <time>2016-09-11T07:31:18.000Z</time>
      </trkpt>
      <trkpt lat="43.97484" lon="2.26276">
        <ele>331</ele>
        <time>2016-09-11T07:31:27.000Z</time>
      </trkpt>
      <trkpt lat="43.97494" lon="2.26278">
        <ele>331</ele>
        <time>2016-09-11T07:31:35.000Z</time>
      </trkpt>
      <trkpt lat="43.97505" lon="2.26285">
        <ele>331</ele>
        <time>2016-09-11T07:31:43.000Z</time>
      </trkpt>
      <trkpt lat="43.97521" lon="2.26291">
        <ele>330</ele>
        <time>2016-09-11T07:31:53.000Z</time>
      </trkpt>
      <trkpt lat="43.97527" lon="2.26306">
        <ele>331</ele>
        <time>2016-09-11T07:32:02.000Z</time>
      </trkpt>
      <trkpt lat="43.9753" lon="2.26325">
        <ele>332</ele>
        <time>2016-09-11T07:32:12.000Z</time>
      </trkpt>
      <trkpt lat="43.97535" lon="2.26343">
        <ele>333</ele>
        <time>2016-09-11T07:32:22.000Z</time>
      </trkpt>
      <trkpt lat="43.97535" lon="2.26361">
        <ele>334</ele>
        <time>2016-09-11T07:32:32.000Z</time>
      </trkpt>
      <trkpt lat="43.97535" lon="2.26379">
        <ele>335</ele>
        <time>2016-09-11T07:32:41.000Z</time>
      </trkpt>
      <trkpt lat="43.97534" lon="2.26399">
        <ele>335</ele>
        <time>2016-09-11T07:32:53.000Z</time>
      </trkpt>
      <trkpt lat="43.97534" lon="2.26416">
        <ele>336</ele>
        <time>2016-09-11T07:33:03.000Z</time>
      </trkpt>
      <trkpt lat="43.97535" lon="2.26429">
        <ele>336</ele>
        <time>2016-09-11T07:33:11.000Z</time>
      </trkpt>
      <trkpt lat="43.97537" lon="2.26445">
        <ele>336</ele>
        <time>2016-09-11T07:33:20.000Z</time>
      </trkpt>
      <trkpt lat="43.97541" lon="2.2646">
        <ele>337</ele>
        <time>2016-09-11T07:33:29.000Z</time>
      </trkpt>
      <trkpt lat="43.97544" lon="2.2647">
        <ele>338</ele>
        <time>2016-09-11T07:33:38.000Z</time>
      </trkpt>
      <trkpt lat="43.97555" lon="2.2649">
        <ele>339</ele>
        <time>2016-09-11T07:33:49.000Z</time>
      </trkpt>
      <trkpt lat="43.9756" lon="2.26501">
        <ele>339</ele>
        <time>2016-09-11T07:33:57.000Z</time>
      </trkpt>
      <trkpt lat="43.97568" lon="2.26512">
        <ele>341</ele>
        <time>2016-09-11T07:34:06.000Z</time>
      </trkpt>
      <trkpt lat="43.97575" lon="2.26524">
        <ele>341</ele>
        <time>2016-09-11T07:34:16.000Z</time>
      </trkpt>
      <trkpt lat="43.97582" lon="2.26535">
        <ele>342</ele>
        <time>2016-09-11T07:34:24.000Z</time>
      </trkpt>
      <trkpt lat="43.97591" lon="2.26547">
        <ele>343</ele>
        <time>2016-09-11T07:34:34.000Z</time>
      </trkpt>
      <trkpt lat="43.97599" lon="2.2656">
        <ele>345</ele>
        <time>2016-09-11T07:34:44.000Z</time>
      </trkpt>
      <trkpt lat="43.97608" lon="2.26573">
        <ele>346</ele>
        <time>2016-09-11T07:34:55.000Z</time>
      </trkpt>
      <trkpt lat="43.97616" lon="2.26586">
        <ele>346</ele>
        <time>2016-09-11T07:35:04.000Z</time>
      </trkpt>
      <trkpt lat="43.97618" lon="2.2659">
        <ele>347</ele>
        <time>2016-09-11T07:35:07.000Z</time>
      </trkpt>
      <trkpt lat="43.97622" lon="2.26597">
        <ele>347</ele>
        <time>2016-09-11T07:35:12.000Z</time>
      </trkpt>
      <trkpt lat="43.97627" lon="2.26607">
        <ele>348</ele>
        <time>2016-09-11T07:35:20.000Z</time>
      </trkpt>
      <trkpt lat="43.97631" lon="2.26613">
        <ele>348</ele>
        <time>2016-09-11T07:35:24.000Z</time>
      </trkpt>
      <trkpt lat="43.97635" lon="2.26618">
        <ele>348</ele>
        <time>2016-09-11T07:35:29.000Z</time>
      </trkpt>
      <trkpt lat="43.97642" lon="2.2663">
        <ele>349</ele>
        <time>2016-09-11T07:35:39.000Z</time>
      </trkpt>
      <trkpt lat="43.97649" lon="2.26643">
        <ele>349</ele>
        <time>2016-09-11T07:35:48.000Z</time>
      </trkpt>
      <trkpt lat="43.97658" lon="2.26653">
        <ele>349</ele>
        <time>2016-09-11T07:36:01.000Z</time>
      </trkpt>
      <trkpt lat="43.97657" lon="2.2666">
        <ele>349</ele>
        <time>2016-09-11T07:35:59.000Z</time>
      </trkpt>
      <trkpt lat="43.97655" lon="2.26679">
        <ele>350</ele>
        <time>2016-09-11T07:36:09.000Z</time>
      </trkpt>
      <trkpt lat="43.97654" lon="2.26698">
        <ele>350</ele>
        <time>2016-09-11T07:36:19.000Z</time>
      </trkpt>
      <trkpt lat="43.97651" lon="2.2672">
        <ele>350</ele>
        <time>2016-09-11T07:36:31.000Z</time>
      </trkpt>
      <trkpt lat="43.9765" lon="2.26736">
        <ele>351</ele>
        <time>2016-09-11T07:36:40.000Z</time>
      </trkpt>
      <trkpt lat="43.97647" lon="2.26754">
        <ele>351</ele>
        <time>2016-09-11T07:36:50.000Z</time>
      </trkpt>
      <trkpt lat="43.97645" lon="2.26774">
        <ele>351</ele>
        <time>2016-09-11T07:37:01.000Z</time>
      </trkpt>
      <trkpt lat="43.97641" lon="2.26792">
        <ele>352</ele>
        <time>2016-09-11T07:37:11.000Z</time>
      </trkpt>
      <trkpt lat="43.97642" lon="2.26798">
        <ele>352</ele>
        <time>2016-09-11T07:37:17.000Z</time>
      </trkpt>
      <trkpt lat="43.97641" lon="2.26811">
        <ele>352</ele>
        <time>2016-09-11T07:37:25.000Z</time>
      </trkpt>
      <trkpt lat="43.9764" lon="2.26821">
        <ele>352</ele>
        <time>2016-09-11T07:37:32.000Z</time>
      </trkpt>
      <trkpt lat="43.97637" lon="2.26836">
        <ele>353</ele>
        <time>2016-09-11T07:37:42.000Z</time>
      </trkpt>
      <trkpt lat="43.97636" lon="2.26856">
        <ele>353</ele>
        <time>2016-09-11T07:37:52.000Z</time>
      </trkpt>
      <trkpt lat="43.97633" lon="2.26869">
        <ele>353</ele>
        <time>2016-09-11T07:38:00.000Z</time>
      </trkpt>
      <trkpt lat="43.97631" lon="2.26887">
        <ele>354</ele>
        <time>2016-09-11T07:38:09.000Z</time>
      </trkpt>
      <trkpt lat="43.97627" lon="2.26902">
        <ele>354</ele>
        <time>2016-09-11T07:38:18.000Z</time>
      </trkpt>
      <trkpt lat="43.97623" lon="2.26918">
        <ele>355</ele>
        <time>2016-09-11T07:38:27.000Z</time>
      </trkpt>
      <trkpt lat="43.97617" lon="2.26933">
        <ele>355</ele>
        <time>2016-09-11T07:38:36.000Z</time>
      </trkpt>
      <trkpt lat="43.97611" lon="2.26947">
        <ele>356</ele>
        <time>2016-09-11T07:38:45.000Z</time>
      </trkpt>
      <trkpt lat="43.97604" lon="2.26959">
        <ele>356</ele>
        <time>2016-09-11T07:38:57.000Z</time>
      </trkpt>
      <trkpt lat="43.97597" lon="2.2697">
        <ele>356</ele>
        <time>2016-09-11T07:39:10.000Z</time>
      </trkpt>
      <trkpt lat="43.97588" lon="2.26986">
        <ele>357</ele>
        <time>2016-09-11T07:39:06.000Z</time>
      </trkpt>
      <trkpt lat="43.97581" lon="2.26998">
        <ele>357</ele>
        <time>2016-09-11T07:39:17.000Z</time>
      </trkpt>
      <trkpt lat="43.97572" lon="2.27011">
        <ele>357</ele>
        <time>2016-09-11T07:39:27.000Z</time>
      </trkpt>
      <trkpt lat="43.97565" lon="2.27025">
        <ele>358</ele>
        <time>2016-09-11T07:39:37.000Z</time>
      </trkpt>
      <trkpt lat="43.97556" lon="2.27041">
        <ele>358</ele>
        <time>2016-09-11T07:39:48.000Z</time>
      </trkpt>
      <trkpt lat="43.97549" lon="2.27056">
        <ele>359</ele>
        <time>2016-09-11T07:39:58.000Z</time>
      </trkpt>
      <trkpt lat="43.97541" lon="2.27069">
        <ele>360</ele>
        <time>2016-09-11T07:40:07.000Z</time>
      </trkpt>
      <trkpt lat="43.97533" lon="2.2709">
        <ele>361</ele>
        <time>2016-09-11T07:40:18.000Z</time>
      </trkpt>
      <trkpt lat="43.97521" lon="2.27109">
        <ele>361</ele>
        <time>2016-09-11T07:40:31.000Z</time>
      </trkpt>
      <trkpt lat="43.97513" lon="2.27127">
        <ele>360</ele>
        <time>2016-09-11T07:40:41.000Z</time>
      </trkpt>
      <trkpt lat="43.97506" lon="2.27152">
        <ele>360</ele>
        <time>2016-09-11T07:40:56.000Z</time>
      </trkpt>
      <trkpt lat="43.97507" lon="2.2717">
        <ele>361</ele>
        <time>2016-09-11T07:41:05.000Z</time>
      </trkpt>
      <trkpt lat="43.97506" lon="2.27189">
        <ele>361</ele>
        <time>2016-09-11T07:41:15.000Z</time>
      </trkpt>
      <trkpt lat="43.97504" lon="2.2721">
        <ele>361</ele>
        <time>2016-09-11T07:41:25.000Z</time>
      </trkpt>
      <trkpt lat="43.97501" lon="2.27229">
        <ele>361</ele>
        <time>2016-09-11T07:41:35.000Z</time>
      </trkpt>
      <trkpt lat="43.97496" lon="2.27246">
        <ele>360</ele>
        <time>2016-09-11T07:41:45.000Z</time>
      </trkpt>
      <trkpt lat="43.97491" lon="2.27264">
        <ele>360</ele>
        <time>2016-09-11T07:41:54.000Z</time>
      </trkpt>
      <trkpt lat="43.97484" lon="2.27283">
        <ele>359</ele>
        <time>2016-09-11T07:42:05.000Z</time>
      </trkpt>
      <trkpt lat="43.97479" lon="2.27304">
        <ele>359</ele>
        <time>2016-09-11T07:42:16.000Z</time>
      </trkpt>
      <trkpt lat="43.97473" lon="2.27321">
        <ele>358</ele>
        <time>2016-09-11T07:42:25.000Z</time>
      </trkpt>
      <trkpt lat="43.97467" lon="2.27335">
        <ele>358</ele>
        <time>2016-09-11T07:42:34.000Z</time>
      </trkpt>
      <trkpt lat="43.97459" lon="2.27351">
        <ele>358</ele>
        <time>2016-09-11T07:42:44.000Z</time>
      </trkpt>
      <trkpt lat="43.97451" lon="2.27379">
        <ele>358</ele>
        <time>2016-09-11T07:42:56.000Z</time>
      </trkpt>
      <trkpt lat="43.97447" lon="2.27397">
        <ele>359</ele>
        <time>2016-09-11T07:43:07.000Z</time>
      </trkpt>
      <trkpt lat="43.97443" lon="2.27415">
        <ele>358</ele>
        <time>2016-09-11T07:43:16.000Z</time>
      </trkpt>
      <trkpt lat="43.97437" lon="2.27435">
        <ele>358</ele>
        <time>2016-09-11T07:43:27.000Z</time>
      </trkpt>
      <trkpt lat="43.97427" lon="2.27451">
        <ele>358</ele>
        <time>2016-09-11T07:43:37.000Z</time>
      </trkpt>
      <trkpt lat="43.97416" lon="2.27461">
        <ele>358</ele>
        <time>2016-09-11T07:43:47.000Z</time>
      </trkpt>
      <trkpt lat="43.97405" lon="2.27473">
        <ele>358</ele>
        <time>2016-09-11T07:43:57.000Z</time>
      </trkpt>
      <trkpt lat="43.97392" lon="2.27484">
        <ele>358</ele>
        <time>2016-09-11T07:44:08.000Z</time>
      </trkpt>
      <trkpt lat="43.97384" lon="2.27491">
        <ele>359</ele>
        <time>2016-09-11T07:44:17.000Z</time>
      </trkpt>
      <trkpt lat="43.9737" lon="2.27497">
        <ele>359</ele>
        <time>2016-09-11T07:44:33.000Z</time>
      </trkpt>
      <trkpt lat="43.97359" lon="2.27504">
        <ele>360</ele>
        <time>2016-09-11T07:44:27.000Z</time>
      </trkpt>
      <trkpt lat="43.97348" lon="2.27509">
        <ele>361</ele>
        <time>2016-09-11T07:44:38.000Z</time>
      </trkpt>
      <trkpt lat="43.97337" lon="2.27516">
        <ele>362</ele>
        <time>2016-09-11T07:44:49.000Z</time>
      </trkpt>
      <trkpt lat="43.97326" lon="2.27517">
        <ele>362</ele>
        <time>2016-09-11T07:44:57.000Z</time>
      </trkpt>
      <trkpt lat="43.97313" lon="2.27521">
        <ele>363</ele>
        <time>2016-09-11T07:45:05.000Z</time>
      </trkpt>
      <trkpt lat="43.973" lon="2.27523">
        <ele>363</ele>
        <time>2016-09-11T07:45:13.000Z</time>
      </trkpt>
      <trkpt lat="43.97291" lon="2.27527">
        <ele>364</ele>
        <time>2016-09-11T07:45:24.000Z</time>
      </trkpt>
      <trkpt lat="43.97284" lon="2.2753">
        <ele>364</ele>
        <time>2016-09-11T07:45:32.000Z</time>
      </trkpt>
      <trkpt lat="43.97274" lon="2.27535">
        <ele>364</ele>
        <time>2016-09-11T07:45:40.000Z</time>
      </trkpt>
      <trkpt lat="43.97266" lon="2.27541">
        <ele>365</ele>
        <time>2016-09-11T07:45:48.000Z</time>
      </trkpt>
      <trkpt lat="43.9727" lon="2.27548">
        <ele>365</ele>
        <time>2016-09-11T07:45:56.000Z</time>
      </trkpt>
      <trkpt lat="43.97271" lon="2.27563">
        <ele>366</ele>
        <time>2016-09-11T07:45:55.000Z</time>
      </trkpt>
      <trkpt lat="43.97276" lon="2.27578">
        <ele>366</ele>
        <time>2016-09-11T07:46:03.000Z</time>
      </trkpt>
      <trkpt lat="43.97281" lon="2.27594">
        <ele>366</ele>
        <time>2016-09-11T07:46:14.000Z</time>
      </trkpt>
      <trkpt lat="43.97283" lon="2.27602">
        <ele>366</ele>
        <time>2016-09-11T07:46:19.000Z</time>
      </trkpt>
      <trkpt lat="43.97287" lon="2.27614">
        <ele>366</ele>
        <time>2016-09-11T07:46:28.000Z</time>
      </trkpt>
      <trkpt lat="43.97284" lon="2.27624">
        <ele>366</ele>
        <time>2016-09-11T07:46:37.000Z</time>
      </trkpt>
      <trkpt lat="43.9728" lon="2.27632">
        <ele>366</ele>
        <time>2016-09-11T07:46:38.000Z</time>
      </trkpt>
      <trkpt lat="43.97275" lon="2.27637">
        <ele>365</ele>
        <time>2016-09-11T07:46:46.000Z</time>
      </trkpt>
      <trkpt lat="43.97274" lon="2.27638">
        <ele>365</ele>
        <time>2016-09-11T07:46:47.000Z</time>
      </trkpt>
      <trkpt lat="43.97265" lon="2.27638">
        <ele>364</ele>
        <time>2016-09-11T07:46:56.000Z</time>
      </trkpt>
      <trkpt lat="43.97256" lon="2.2764">
        <ele>363</ele>
        <time>2016-09-11T07:47:04.000Z</time>
      </trkpt>
      <trkpt lat="43.97248" lon="2.27641">
        <ele>362</ele>
        <time>2016-09-11T07:47:13.000Z</time>
      </trkpt>
      <trkpt lat="43.97237" lon="2.27639">
        <ele>362</ele>
        <time>2016-09-11T07:47:24.000Z</time>
      </trkpt>
      <trkpt lat="43.97224" lon="2.27639">
        <ele>361</ele>
        <time>2016-09-11T07:47:35.000Z</time>
      </trkpt>
      <trkpt lat="43.97214" lon="2.27643">
        <ele>361</ele>
        <time>2016-09-11T07:47:45.000Z</time>
      </trkpt>
      <trkpt lat="43.97203" lon="2.27644">
        <ele>360</ele>
        <time>2016-09-11T07:47:54.000Z</time>
      </trkpt>
      <trkpt lat="43.97192" lon="2.27647">
        <ele>359</ele>
        <time>2016-09-11T07:48:03.000Z</time>
      </trkpt>
      <trkpt lat="43.97184" lon="2.27649">
        <ele>359</ele>
        <time>2016-09-11T07:48:11.000Z</time>
      </trkpt>
      <trkpt lat="43.97175" lon="2.27651">
        <ele>358</ele>
        <time>2016-09-11T07:48:18.000Z</time>
      </trkpt>
      <trkpt lat="43.97168" lon="2.27654">
        <ele>357</ele>
        <time>2016-09-11T07:48:26.000Z</time>
      </trkpt>
      <trkpt lat="43.9716" lon="2.27657">
        <ele>357</ele>
        <time>2016-09-11T07:48:34.000Z</time>
      </trkpt>
      <trkpt lat="43.97153" lon="2.27662">
        <ele>357</ele>
        <time>2016-09-11T07:48:41.000Z</time>
      </trkpt>
      <trkpt lat="43.97146" lon="2.27664">
        <ele>358</ele>
        <time>2016-09-11T07:48:48.000Z</time>
      </trkpt>
      <trkpt lat="43.97139" lon="2.27669">
        <ele>357</ele>
        <time>2016-09-11T07:48:56.000Z</time>
      </trkpt>
      <trkpt lat="43.97129" lon="2.27675">
        <ele>356</ele>
        <time>2016-09-11T07:49:07.000Z</time>
      </trkpt>
      <trkpt lat="43.9712" lon="2.27679">
        <ele>355</ele>
        <time>2016-09-11T07:49:17.000Z</time>
      </trkpt>
      <trkpt lat="43.97114" lon="2.27683">
        <ele>354</ele>
        <time>2016-09-11T07:49:25.000Z</time>
      </trkpt>
      <trkpt lat="43.97103" lon="2.27689">
        <ele>353</ele>
        <time>2016-09-11T07:49:36.000Z</time>
      </trkpt>
      <trkpt lat="43.97095" lon="2.27694">
        <ele>352</ele>
        <time>2016-09-11T07:49:46.000Z</time>
      </trkpt>
      <trkpt lat="43.97083" lon="2.27703">
        <ele>350</ele>
        <time>2016-09-11T07:49:56.000Z</time>
      </trkpt>
      <trkpt lat="43.97071" lon="2.27709">
        <ele>350</ele>
        <time>2016-09-11T07:50:07.000Z</time>
      </trkpt>
      <trkpt lat="43.97063" lon="2.27714">
        <ele>347</ele>
        <time>2016-09-11T07:50:15.000Z</time>
      </trkpt>
      <trkpt lat="43.97052" lon="2.2772">
        <ele>344</ele>
        <time>2016-09-11T07:50:24.000Z</time>
      </trkpt>
      <trkpt lat="43.97052" lon="2.27721">
        <ele>344</ele>
        <time>2016-09-11T07:50:25.000Z</time>
      </trkpt>
      <trkpt lat="43.97049" lon="2.27723">
        <ele>342</ele>
        <time>2016-09-11T07:50:27.000Z</time>
      </trkpt>
      <trkpt lat="43.97039" lon="2.27729">
        <ele>339</ele>
        <time>2016-09-11T07:50:37.000Z</time>
      </trkpt>
      <trkpt lat="43.97028" lon="2.27733">
        <ele>336</ele>
        <time>2016-09-11T07:50:47.000Z</time>
      </trkpt>
      <trkpt lat="43.97019" lon="2.27732">
        <ele>335</ele>
        <time>2016-09-11T07:50:57.000Z</time>
      </trkpt>
      <trkpt lat="43.97009" lon="2.27725">
        <ele>336</ele>
        <time>2016-09-11T07:51:06.000Z</time>
      </trkpt>
      <trkpt lat="43.96999" lon="2.27721">
        <ele>336</ele>
        <time>2016-09-11T07:51:14.000Z</time>
      </trkpt>
      <trkpt lat="43.96991" lon="2.2772">
        <ele>335</ele>
        <time>2016-09-11T07:51:22.000Z</time>
      </trkpt>
      <trkpt lat="43.96982" lon="2.27719">
        <ele>334</ele>
        <time>2016-09-11T07:51:30.000Z</time>
      </trkpt>
      <trkpt lat="43.96976" lon="2.27721">
        <ele>332</ele>
        <time>2016-09-11T07:51:38.000Z</time>
      </trkpt>
      <trkpt lat="43.9697" lon="2.27723">
        <ele>330</ele>
        <time>2016-09-11T07:51:46.000Z</time>
      </trkpt>
      <trkpt lat="43.9696" lon="2.27722">
        <ele>329</ele>
        <time>2016-09-11T07:51:55.000Z</time>
      </trkpt>
      <trkpt lat="43.96955" lon="2.27723">
        <ele>328</ele>
        <time>2016-09-11T07:52:03.000Z</time>
      </trkpt>
      <trkpt lat="43.96948" lon="2.27723">
        <ele>326</ele>
        <time>2016-09-11T07:52:10.000Z</time>
      </trkpt>
      <trkpt lat="43.96938" lon="2.27723">
        <ele>324</ele>
        <time>2016-09-11T07:52:19.000Z</time>
      </trkpt>
      <trkpt lat="43.96929" lon="2.27724">
        <ele>322</ele>
        <time>2016-09-11T07:52:28.000Z</time>
      </trkpt>
      <trkpt lat="43.9692" lon="2.27723">
        <ele>321</ele>
        <time>2016-09-11T07:52:36.000Z</time>
      </trkpt>
      <trkpt lat="43.96909" lon="2.27724">
        <ele>319</ele>
        <time>2016-09-11T07:52:45.000Z</time>
      </trkpt>
      <trkpt lat="43.96901" lon="2.27719">
        <ele>321</ele>
        <time>2016-09-11T07:52:54.000Z</time>
      </trkpt>
      <trkpt lat="43.96892" lon="2.27719">
        <ele>320</ele>
        <time>2016-09-11T07:53:03.000Z</time>
      </trkpt>
      <trkpt lat="43.96885" lon="2.27713">
        <ele>321</ele>
        <time>2016-09-11T07:53:12.000Z</time>
      </trkpt>
      <trkpt lat="43.96877" lon="2.27709">
        <ele>322</ele>
        <time>2016-09-11T07:53:20.000Z</time>
      </trkpt>
      <trkpt lat="43.96867" lon="2.27709">
        <ele>322</ele>
        <time>2016-09-11T07:53:30.000Z</time>
      </trkpt>
      <trkpt lat="43.9686" lon="2.27715">
        <ele>319</ele>
        <time>2016-09-11T07:53:40.000Z</time>
      </trkpt>
      <trkpt lat="43.96854" lon="2.27721">
        <ele>317</ele>
        <time>2016-09-11T07:53:49.000Z</time>
      </trkpt>
      <trkpt lat="43.96846" lon="2.2773">
        <ele>315</ele>
        <time>2016-09-11T07:53:58.000Z</time>
      </trkpt>
      <trkpt lat="43.96836" lon="2.27736">
        <ele>315</ele>
        <time>2016-09-11T07:54:07.000Z</time>
      </trkpt>
      <trkpt lat="43.9683" lon="2.2774">
        <ele>313</ele>
        <time>2016-09-11T07:54:15.000Z</time>
      </trkpt>
      <trkpt lat="43.96822" lon="2.2774">
        <ele>313</ele>
        <time>2016-09-11T07:54:24.000Z</time>
      </trkpt>
      <trkpt lat="43.96816" lon="2.27737">
        <ele>313</ele>
        <time>2016-09-11T07:54:32.000Z</time>
      </trkpt>
      <trkpt lat="43.9681" lon="2.27734">
        <ele>313</ele>
        <time>2016-09-11T07:54:42.000Z</time>
      </trkpt>
      <trkpt lat="43.96802" lon="2.27732">
        <ele>313</ele>
        <time>2016-09-11T07:54:52.000Z</time>
      </trkpt>
      <trkpt lat="43.96795" lon="2.2773">
        <ele>313</ele>
        <time>2016-09-11T07:55:02.000Z</time>
      </trkpt>
      <trkpt lat="43.96787" lon="2.27724">
        <ele>312</ele>
        <time>2016-09-11T07:55:11.000Z</time>
      </trkpt>
      <trkpt lat="43.96782" lon="2.27717">
        <ele>314</ele>
        <time>2016-09-11T07:55:17.000Z</time>
      </trkpt>
      <trkpt lat="43.96775" lon="2.27713">
        <ele>315</ele>
        <time>2016-09-11T07:55:26.000Z</time>
      </trkpt>
      <trkpt lat="43.96766" lon="2.27715">
        <ele>313</ele>
        <time>2016-09-11T07:55:34.000Z</time>
      </trkpt>
      <trkpt lat="43.9676" lon="2.27713">
        <ele>313</ele>
        <time>2016-09-11T07:55:42.000Z</time>
      </trkpt>
      <trkpt lat="43.9675" lon="2.27717">
        <ele>311</ele>
        <time>2016-09-11T07:55:48.000Z</time>
      </trkpt>
      <trkpt lat="43.96742" lon="2.27717">
        <ele>311</ele>
        <time>2016-09-11T07:55:55.000Z</time>
      </trkpt>
      <trkpt lat="43.96732" lon="2.27722">
        <ele>311</ele>
        <time>2016-09-11T07:56:03.000Z</time>
      </trkpt>
      <trkpt lat="43.96723" lon="2.27731">
        <ele>310</ele>
        <time>2016-09-11T07:56:13.000Z</time>
      </trkpt>
      <trkpt lat="43.96715" lon="2.2774">
        <ele>307</ele>
        <time>2016-09-11T07:56:22.000Z</time>
      </trkpt>
      <trkpt lat="43.96706" lon="2.27744">
        <ele>308</ele>
        <time>2016-09-11T07:56:30.000Z</time>
      </trkpt>
      <trkpt lat="43.96699" lon="2.2775">
        <ele>307</ele>
        <time>2016-09-11T07:56:40.000Z</time>
      </trkpt>
      <trkpt lat="43.96693" lon="2.27758">
        <ele>306</ele>
        <time>2016-09-11T07:56:47.000Z</time>
      </trkpt>
      <trkpt lat="43.96685" lon="2.27767">
        <ele>306</ele>
        <time>2016-09-11T07:56:56.000Z</time>
      </trkpt>
      <trkpt lat="43.96678" lon="2.27777">
        <ele>304</ele>
        <time>2016-09-11T07:57:05.000Z</time>
      </trkpt>
      <trkpt lat="43.96671" lon="2.27787">
        <ele>302</ele>
        <time>2016-09-11T07:57:14.000Z</time>
      </trkpt>
      <trkpt lat="43.96664" lon="2.27793">
        <ele>302</ele>
        <time>2016-09-11T07:57:24.000Z</time>
      </trkpt>
      <trkpt lat="43.96653" lon="2.27794">
        <ele>303</ele>
        <time>2016-09-11T07:57:32.000Z</time>
      </trkpt>
      <trkpt lat="43.96642" lon="2.27794">
        <ele>304</ele>
        <time>2016-09-11T07:57:41.000Z</time>
      </trkpt>
      <trkpt lat="43.96636" lon="2.27791">
        <ele>305</ele>
        <time>2016-09-11T07:57:50.000Z</time>
      </trkpt>
      <trkpt lat="43.9663" lon="2.27789">
        <ele>306</ele>
        <time>2016-09-11T07:58:01.000Z</time>
      </trkpt>
      <trkpt lat="43.96622" lon="2.27787">
        <ele>306</ele>
        <time>2016-09-11T07:58:10.000Z</time>
      </trkpt>
      <trkpt lat="43.96617" lon="2.27785">
        <ele>307</ele>
        <time>2016-09-11T07:58:17.000Z</time>
      </trkpt>
      <trkpt lat="43.96607" lon="2.27783">
        <ele>306</ele>
        <time>2016-09-11T07:58:28.000Z</time>
      </trkpt>
      <trkpt lat="43.96597" lon="2.27778">
        <ele>307</ele>
        <time>2016-09-11T07:58:37.000Z</time>
      </trkpt>
      <trkpt lat="43.96587" lon="2.27777">
        <ele>306</ele>
        <time>2016-09-11T07:58:44.000Z</time>
      </trkpt>
      <trkpt lat="43.96578" lon="2.27772">
        <ele>307</ele>
        <time>2016-09-11T07:58:51.000Z</time>
      </trkpt>
      <trkpt lat="43.9657" lon="2.2777">
        <ele>306</ele>
        <time>2016-09-11T07:59:09.000Z</time>
      </trkpt>
      <trkpt lat="43.96561" lon="2.27767">
        <ele>306</ele>
        <time>2016-09-11T07:59:18.000Z</time>
      </trkpt>
      <trkpt lat="43.96553" lon="2.27764">
        <ele>305</ele>
        <time>2016-09-11T07:59:26.000Z</time>
      </trkpt>
      <trkpt lat="43.96545" lon="2.2776">
        <ele>305</ele>
        <time>2016-09-11T07:59:34.000Z</time>
      </trkpt>
      <trkpt lat="43.96536" lon="2.2776">
        <ele>305</ele>
        <time>2016-09-11T07:59:44.000Z</time>
      </trkpt>
      <trkpt lat="43.96526" lon="2.27756">
        <ele>305</ele>
        <time>2016-09-11T07:59:49.000Z</time>
      </trkpt>
      <trkpt lat="43.96514" lon="2.27755">
        <ele>304</ele>
        <time>2016-09-11T07:59:58.000Z</time>
      </trkpt>
      <trkpt lat="43.96503" lon="2.27752">
        <ele>304</ele>
        <time>2016-09-11T08:00:11.000Z</time>
      </trkpt>
      <trkpt lat="43.96495" lon="2.27749">
        <ele>305</ele>
        <time>2016-09-11T08:00:07.000Z</time>
      </trkpt>
      <trkpt lat="43.96482" lon="2.27745">
        <ele>305</ele>
        <time>2016-09-11T08:00:16.000Z</time>
      </trkpt>
      <trkpt lat="43.96469" lon="2.27741">
        <ele>306</ele>
        <time>2016-09-11T08:00:26.000Z</time>
      </trkpt>
      <trkpt lat="43.96458" lon="2.27741">
        <ele>306</ele>
        <time>2016-09-11T08:00:32.000Z</time>
      </trkpt>
      <trkpt lat="43.96445" lon="2.27738">
        <ele>310</ele>
        <time>2016-09-11T08:00:40.000Z</time>
      </trkpt>
      <trkpt lat="43.96433" lon="2.27739">
        <ele>313</ele>
        <time>2016-09-11T08:00:50.000Z</time>
      </trkpt>
      <trkpt lat="43.96424" lon="2.2774">
        <ele>315</ele>
        <time>2016-09-11T08:00:59.000Z</time>
      </trkpt>
      <trkpt lat="43.96416" lon="2.2774">
        <ele>315</ele>
        <time>2016-09-11T08:01:06.000Z</time>
      </trkpt>
      <trkpt lat="43.96405" lon="2.27743">
        <ele>317</ele>
        <time>2016-09-11T08:01:15.000Z</time>
      </trkpt>
      <trkpt lat="43.96393" lon="2.27745">
        <ele>316</ele>
        <time>2016-09-11T08:01:23.000Z</time>
      </trkpt>
      <trkpt lat="43.96385" lon="2.27746">
        <ele>314</ele>
        <time>2016-09-11T08:01:33.000Z</time>
      </trkpt>
      <trkpt lat="43.96377" lon="2.27739">
        <ele>315</ele>
        <time>2016-09-11T08:01:41.000Z</time>
      </trkpt>
      <trkpt lat="43.96372" lon="2.27729">
        <ele>315</ele>
        <time>2016-09-11T08:01:50.000Z</time>
      </trkpt>
      <trkpt lat="43.96376" lon="2.2772">
        <ele>318</ele>
        <time>2016-09-11T08:01:58.000Z</time>
      </trkpt>
      <trkpt lat="43.96378" lon="2.27707">
        <ele>320</ele>
        <time>2016-09-11T08:02:01.000Z</time>
      </trkpt>
      <trkpt lat="43.96383" lon="2.27699">
        <ele>322</ele>
        <time>2016-09-11T08:02:31.000Z</time>
      </trkpt>
      <trkpt lat="43.96389" lon="2.27692">
        <ele>323</ele>
        <time>2016-09-11T08:02:50.000Z</time>
      </trkpt>
      <trkpt lat="43.96397" lon="2.27693">
        <ele>324</ele>
        <time>2016-09-11T08:02:29.000Z</time>
      </trkpt>
      <trkpt lat="43.96409" lon="2.27696">
        <ele>326</ele>
        <time>2016-09-11T08:02:37.000Z</time>
      </trkpt>
      <trkpt lat="43.96423" lon="2.27692">
        <ele>326</ele>
        <time>2016-09-11T08:02:46.000Z</time>
      </trkpt>
      <trkpt lat="43.96432" lon="2.27687">
        <ele>327</ele>
        <time>2016-09-11T08:02:55.000Z</time>
      </trkpt>
      <trkpt lat="43.9644" lon="2.27683">
        <ele>327</ele>
        <time>2016-09-11T08:03:03.000Z</time>
      </trkpt>
      <trkpt lat="43.96446" lon="2.2768">
        <ele>328</ele>
        <time>2016-09-11T08:03:12.000Z</time>
      </trkpt>
      <trkpt lat="43.96457" lon="2.27674">
        <ele>329</ele>
        <time>2016-09-11T08:03:21.000Z</time>
      </trkpt>
      <trkpt lat="43.96467" lon="2.27668">
        <ele>331</ele>
        <time>2016-09-11T08:03:29.000Z</time>
      </trkpt>
      <trkpt lat="43.96474" lon="2.27665">
        <ele>332</ele>
        <time>2016-09-11T08:03:38.000Z</time>
      </trkpt>
      <trkpt lat="43.96481" lon="2.27661">
        <ele>334</ele>
        <time>2016-09-11T08:04:11.000Z</time>
      </trkpt>
      <trkpt lat="43.96493" lon="2.27659">
        <ele>335</ele>
        <time>2016-09-11T08:04:22.000Z</time>
      </trkpt>
      <trkpt lat="43.96498" lon="2.27655">
        <ele>337</ele>
        <time>2016-09-11T08:04:26.000Z</time>
      </trkpt>
      <trkpt lat="43.96507" lon="2.27654">
        <ele>338</ele>
        <time>2016-09-11T08:04:35.000Z</time>
      </trkpt>
      <trkpt lat="43.96514" lon="2.2765">
        <ele>339</ele>
        <time>2016-09-11T08:04:54.000Z</time>
      </trkpt>
      <trkpt lat="43.96521" lon="2.27645">
        <ele>339</ele>
        <time>2016-09-11T08:04:40.000Z</time>
      </trkpt>
      <trkpt lat="43.96537" lon="2.27635">
        <ele>341</ele>
        <time>2016-09-11T08:04:52.000Z</time>
      </trkpt>
      <trkpt lat="43.96551" lon="2.27628">
        <ele>343</ele>
        <time>2016-09-11T08:05:00.000Z</time>
      </trkpt>
      <trkpt lat="43.9656" lon="2.2762">
        <ele>344</ele>
        <time>2016-09-11T08:05:08.000Z</time>
      </trkpt>
      <trkpt lat="43.96572" lon="2.27611">
        <ele>345</ele>
        <time>2016-09-11T08:05:16.000Z</time>
      </trkpt>
      <trkpt lat="43.9658" lon="2.27604">
        <ele>345</ele>
        <time>2016-09-11T08:05:24.000Z</time>
      </trkpt>
      <trkpt lat="43.96591" lon="2.27595">
        <ele>346</ele>
        <time>2016-09-11T08:05:33.000Z</time>
      </trkpt>
      <trkpt lat="43.96597" lon="2.27588">
        <ele>347</ele>
        <time>2016-09-11T08:05:42.000Z</time>
      </trkpt>
      <trkpt lat="43.96606" lon="2.27582">
        <ele>348</ele>
        <time>2016-09-11T08:05:50.000Z</time>
      </trkpt>
      <trkpt lat="43.96616" lon="2.27571">
        <ele>349</ele>
        <time>2016-09-11T08:05:57.000Z</time>
      </trkpt>
      <trkpt lat="43.96626" lon="2.27562">
        <ele>350</ele>
        <time>2016-09-11T08:06:06.000Z</time>
      </trkpt>
      <trkpt lat="43.96634" lon="2.27551">
        <ele>351</ele>
        <time>2016-09-11T08:06:16.000Z</time>
      </trkpt>
      <trkpt lat="43.96642" lon="2.27541">
        <ele>352</ele>
        <time>2016-09-11T08:06:26.000Z</time>
      </trkpt>
      <trkpt lat="43.96645" lon="2.27536">
        <ele>352</ele>
        <time>2016-09-11T08:06:35.000Z</time>
      </trkpt>
      <trkpt lat="43.9665" lon="2.2753">
        <ele>353</ele>
        <time>2016-09-11T08:06:44.000Z</time>
      </trkpt>
      <trkpt lat="43.9665" lon="2.27522">
        <ele>352</ele>
        <time>2016-09-11T08:06:45.000Z</time>
      </trkpt>
      <trkpt lat="43.96651" lon="2.27513">
        <ele>350</ele>
        <time>2016-09-11T08:06:49.000Z</time>
      </trkpt>
      <trkpt lat="43.96651" lon="2.27503">
        <ele>350</ele>
        <time>2016-09-11T08:06:57.000Z</time>
      </trkpt>
      <trkpt lat="43.96657" lon="2.27488">
        <ele>350</ele>
        <time>2016-09-11T08:06:58.000Z</time>
      </trkpt>
      <trkpt lat="43.96664" lon="2.27479">
        <ele>352</ele>
        <time>2016-09-11T08:07:07.000Z</time>
      </trkpt>
      <trkpt lat="43.96675" lon="2.2747">
        <ele>354</ele>
        <time>2016-09-11T08:07:17.000Z</time>
      </trkpt>
      <trkpt lat="43.9668" lon="2.27459">
        <ele>354</ele>
        <time>2016-09-11T08:07:26.000Z</time>
      </trkpt>
      <trkpt lat="43.96684" lon="2.27447">
        <ele>355</ele>
        <time>2016-09-11T08:07:36.000Z</time>
      </trkpt>
      <trkpt lat="43.96688" lon="2.27435">
        <ele>354</ele>
        <time>2016-09-11T08:07:43.000Z</time>
      </trkpt>
      <trkpt lat="43.9669" lon="2.27429">
        <ele>353</ele>
        <time>2016-09-11T08:07:47.000Z</time>
      </trkpt>
      <trkpt lat="43.96694" lon="2.27417">
        <ele>352</ele>
        <time>2016-09-11T08:07:55.000Z</time>
      </trkpt>
      <trkpt lat="43.96703" lon="2.27398">
        <ele>354</ele>
        <time>2016-09-11T08:08:06.000Z</time>
      </trkpt>
      <trkpt lat="43.96709" lon="2.27382">
        <ele>353</ele>
        <time>2016-09-11T08:08:15.000Z</time>
      </trkpt>
      <trkpt lat="43.96715" lon="2.2737">
        <ele>352</ele>
        <time>2016-09-11T08:08:27.000Z</time>
      </trkpt>
      <trkpt lat="43.96718" lon="2.27363">
        <ele>351</ele>
        <time>2016-09-11T08:08:26.000Z</time>
      </trkpt>
      <trkpt lat="43.96723" lon="2.27352">
        <ele>352</ele>
        <time>2016-09-11T08:08:34.000Z</time>
      </trkpt>
      <trkpt lat="43.96728" lon="2.27342">
        <ele>352</ele>
        <time>2016-09-11T08:08:42.000Z</time>
      </trkpt>
      <trkpt lat="43.96734" lon="2.2733">
        <ele>351</ele>
        <time>2016-09-11T08:08:51.000Z</time>
      </trkpt>
      <trkpt lat="43.96734" lon="2.27329">
        <ele>351</ele>
        <time>2016-09-11T08:08:52.000Z</time>
      </trkpt>
      <trkpt lat="43.96743" lon="2.27315">
        <ele>351</ele>
        <time>2016-09-11T08:09:00.000Z</time>
      </trkpt>
      <trkpt lat="43.96751" lon="2.27312">
        <ele>353</ele>
        <time>2016-09-11T08:09:30.000Z</time>
      </trkpt>
      <trkpt lat="43.96755" lon="2.273">
        <ele>353</ele>
        <time>2016-09-11T08:09:08.000Z</time>
      </trkpt>
      <trkpt lat="43.96761" lon="2.27288">
        <ele>353</ele>
        <time>2016-09-11T08:09:18.000Z</time>
      </trkpt>
      <trkpt lat="43.96765" lon="2.27278">
        <ele>351</ele>
        <time>2016-09-11T08:09:26.000Z</time>
      </trkpt>
      <trkpt lat="43.96771" lon="2.27263">
        <ele>350</ele>
        <time>2016-09-11T08:09:38.000Z</time>
      </trkpt>
      <trkpt lat="43.96777" lon="2.27255">
        <ele>352</ele>
        <time>2016-09-11T08:09:48.000Z</time>
      </trkpt>
      <trkpt lat="43.96783" lon="2.27244">
        <ele>351</ele>
        <time>2016-09-11T08:09:49.000Z</time>
      </trkpt>
      <trkpt lat="43.96787" lon="2.27235">
        <ele>350</ele>
        <time>2016-09-11T08:09:58.000Z</time>
      </trkpt>
      <trkpt lat="43.96797" lon="2.27225">
        <ele>349</ele>
        <time>2016-09-11T08:10:07.000Z</time>
      </trkpt>
      <trkpt lat="43.96804" lon="2.27214">
        <ele>349</ele>
        <time>2016-09-11T08:10:15.000Z</time>
      </trkpt>
      <trkpt lat="43.96811" lon="2.27205">
        <ele>348</ele>
        <time>2016-09-11T08:10:23.000Z</time>
      </trkpt>
      <trkpt lat="43.96814" lon="2.272">
        <ele>347</ele>
        <time>2016-09-11T08:10:27.000Z</time>
      </trkpt>
      <trkpt lat="43.96821" lon="2.27191">
        <ele>345</ele>
        <time>2016-09-11T08:10:35.000Z</time>
      </trkpt>
      <trkpt lat="43.96827" lon="2.27183">
        <ele>344</ele>
        <time>2016-09-11T08:10:44.000Z</time>
      </trkpt>
      <trkpt lat="43.96835" lon="2.27176">
        <ele>343</ele>
        <time>2016-09-11T08:10:53.000Z</time>
      </trkpt>
      <trkpt lat="43.96842" lon="2.27168">
        <ele>341</ele>
        <time>2016-09-11T08:11:02.000Z</time>
      </trkpt>
      <trkpt lat="43.9685" lon="2.27159">
        <ele>340</ele>
        <time>2016-09-11T08:11:11.000Z</time>
      </trkpt>
      <trkpt lat="43.96857" lon="2.27152">
        <ele>339</ele>
        <time>2016-09-11T08:11:19.000Z</time>
      </trkpt>
      <trkpt lat="43.96864" lon="2.27143">
        <ele>339</ele>
        <time>2016-09-11T08:11:27.000Z</time>
      </trkpt>
      <trkpt lat="43.96868" lon="2.27134">
        <ele>337</ele>
        <time>2016-09-11T08:11:35.000Z</time>
      </trkpt>
      <trkpt lat="43.96869" lon="2.2712">
        <ele>335</ele>
        <time>2016-09-11T08:11:43.000Z</time>
      </trkpt>
      <trkpt lat="43.96869" lon="2.27111">
        <ele>334</ele>
        <time>2016-09-11T08:11:50.000Z</time>
      </trkpt>
      <trkpt lat="43.96867" lon="2.27102">
        <ele>332</ele>
        <time>2016-09-11T08:11:57.000Z</time>
      </trkpt>
      <trkpt lat="43.96863" lon="2.27094">
        <ele>330</ele>
        <time>2016-09-11T08:12:04.000Z</time>
      </trkpt>
      <trkpt lat="43.96857" lon="2.27091">
        <ele>328</ele>
        <time>2016-09-11T08:12:12.000Z</time>
      </trkpt>
      <trkpt lat="43.9685" lon="2.27088">
        <ele>327</ele>
        <time>2016-09-11T08:12:15.000Z</time>
      </trkpt>
      <trkpt lat="43.9684" lon="2.2709">
        <ele>326</ele>
        <time>2016-09-11T08:12:24.000Z</time>
      </trkpt>
      <trkpt lat="43.9683" lon="2.27092">
        <ele>326</ele>
        <time>2016-09-11T08:12:31.000Z</time>
      </trkpt>
      <trkpt lat="43.96819" lon="2.27099">
        <ele>326</ele>
        <time>2016-09-11T08:12:39.000Z</time>
      </trkpt>
      <trkpt lat="43.96812" lon="2.27101">
        <ele>325</ele>
        <time>2016-09-11T08:12:46.000Z</time>
      </trkpt>
      <trkpt lat="43.96803" lon="2.2711">
        <ele>324</ele>
        <time>2016-09-11T08:12:54.000Z</time>
      </trkpt>
      <trkpt lat="43.968" lon="2.27112">
        <ele>324</ele>
        <time>2016-09-11T08:13:02.000Z</time>
      </trkpt>
      <trkpt lat="43.96798" lon="2.27113">
        <ele>324</ele>
        <time>2016-09-11T08:13:12.000Z</time>
      </trkpt>
      <trkpt lat="43.96796" lon="2.27115">
        <ele>324</ele>
        <time>2016-09-11T08:13:20.000Z</time>
      </trkpt>
      <trkpt lat="43.96796" lon="2.27117">
        <ele>324</ele>
        <time>2016-09-11T08:13:28.000Z</time>
      </trkpt>
      <trkpt lat="43.96789" lon="2.27119">
        <ele>324</ele>
        <time>2016-09-11T08:13:35.000Z</time>
      </trkpt>
      <trkpt lat="43.9678" lon="2.27123">
        <ele>323</ele>
        <time>2016-09-11T08:13:43.000Z</time>
      </trkpt>
      <trkpt lat="43.96773" lon="2.2713">
        <ele>323</ele>
        <time>2016-09-11T08:13:51.000Z</time>
      </trkpt>
      <trkpt lat="43.96768" lon="2.27134">
        <ele>324</ele>
        <time>2016-09-11T08:13:59.000Z</time>
      </trkpt>
      <trkpt lat="43.96762" lon="2.27138">
        <ele>324</ele>
        <time>2016-09-11T08:14:06.000Z</time>
      </trkpt>
      <trkpt lat="43.96756" lon="2.27144">
        <ele>324</ele>
        <time>2016-09-11T08:14:12.000Z</time>
      </trkpt>
      <trkpt lat="43.96749" lon="2.27149">
        <ele>323</ele>
        <time>2016-09-11T08:14:16.000Z</time>
      </trkpt>
      <trkpt lat="43.96743" lon="2.27157">
        <ele>323</ele>
        <time>2016-09-11T08:14:25.000Z</time>
      </trkpt>
      <trkpt lat="43.96738" lon="2.27161">
        <ele>322</ele>
        <time>2016-09-11T08:14:25.000Z</time>
      </trkpt>
      <trkpt lat="43.9673" lon="2.27173">
        <ele>322</ele>
        <time>2016-09-11T08:14:35.000Z</time>
      </trkpt>
      <trkpt lat="43.96728" lon="2.27179">
        <ele>323</ele>
        <time>2016-09-11T08:14:42.000Z</time>
      </trkpt>
      <trkpt lat="43.96721" lon="2.27186">
        <ele>322</ele>
        <time>2016-09-11T08:14:51.000Z</time>
      </trkpt>
      <trkpt lat="43.96715" lon="2.27194">
        <ele>320</ele>
        <time>2016-09-11T08:14:59.000Z</time>
      </trkpt>
      <trkpt lat="43.96704" lon="2.27205">
        <ele>319</ele>
        <time>2016-09-11T08:15:07.000Z</time>
      </trkpt>
      <trkpt lat="43.96695" lon="2.27221">
        <ele>318</ele>
        <time>2016-09-11T08:15:16.000Z</time>
      </trkpt>
      <trkpt lat="43.9669" lon="2.27226">
        <ele>317</ele>
        <time>2016-09-11T08:15:20.000Z</time>
      </trkpt>
      <trkpt lat="43.96687" lon="2.27229">
        <ele>317</ele>
        <time>2016-09-11T08:15:22.000Z</time>
      </trkpt>
      <trkpt lat="43.96681" lon="2.27237">
        <ele>316</ele>
        <time>2016-09-11T08:15:29.000Z</time>
      </trkpt>
      <trkpt lat="43.96674" lon="2.27245">
        <ele>315</ele>
        <time>2016-09-11T08:15:37.000Z</time>
      </trkpt>
      <trkpt lat="43.96668" lon="2.2725">
        <ele>314</ele>
        <time>2016-09-11T08:15:44.000Z</time>
      </trkpt>
      <trkpt lat="43.9666" lon="2.27264">
        <ele>313</ele>
        <time>2016-09-11T08:15:50.000Z</time>
      </trkpt>
      <trkpt lat="43.96655" lon="2.27271">
        <ele>313</ele>
        <time>2016-09-11T08:15:58.000Z</time>
      </trkpt>
      <trkpt lat="43.96648" lon="2.27278">
        <ele>311</ele>
        <time>2016-09-11T08:16:04.000Z</time>
      </trkpt>
      <trkpt lat="43.96641" lon="2.27287">
        <ele>311</ele>
        <time>2016-09-11T08:16:12.000Z</time>
      </trkpt>
      <trkpt lat="43.96636" lon="2.27296">
        <ele>311</ele>
        <time>2016-09-11T08:16:19.000Z</time>
      </trkpt>
      <trkpt lat="43.96632" lon="2.27305">
        <ele>310</ele>
        <time>2016-09-11T08:16:26.000Z</time>
      </trkpt>
      <trkpt lat="43.96625" lon="2.27316">
        <ele>309</ele>
        <time>2016-09-11T08:16:34.000Z</time>
      </trkpt>
      <trkpt lat="43.96618" lon="2.27323">
        <ele>309</ele>
        <time>2016-09-11T08:16:44.000Z</time>
      </trkpt>
      <trkpt lat="43.96616" lon="2.27327">
        <ele>309</ele>
        <time>2016-09-11T08:16:41.000Z</time>
      </trkpt>
      <trkpt lat="43.96613" lon="2.27332">
        <ele>309</ele>
        <time>2016-09-11T08:16:44.000Z</time>
      </trkpt>
      <trkpt lat="43.96607" lon="2.2734">
        <ele>308</ele>
        <time>2016-09-11T08:16:52.000Z</time>
      </trkpt>
      <trkpt lat="43.96602" lon="2.27349">
        <ele>307</ele>
        <time>2016-09-11T08:16:59.000Z</time>
      </trkpt>
      <trkpt lat="43.96596" lon="2.27358">
        <ele>307</ele>
        <time>2016-09-11T08:17:07.000Z</time>
      </trkpt>
      <trkpt lat="43.96586" lon="2.27371">
        <ele>306</ele>
        <time>2016-09-11T08:17:16.000Z</time>
      </trkpt>
      <trkpt lat="43.96574" lon="2.27381">
        <ele>305</ele>
        <time>2016-09-11T08:17:25.000Z</time>
      </trkpt>
      <trkpt lat="43.96563" lon="2.27387">
        <ele>304</ele>
        <time>2016-09-11T08:17:33.000Z</time>
      </trkpt>
      <trkpt lat="43.9656" lon="2.27391">
        <ele>303</ele>
        <time>2016-09-11T08:17:36.000Z</time>
      </trkpt>
      <trkpt lat="43.96551" lon="2.27402">
        <ele>301</ele>
        <time>2016-09-11T08:17:45.000Z</time>
      </trkpt>
      <trkpt lat="43.96547" lon="2.27406">
        <ele>301</ele>
        <time>2016-09-11T08:17:50.000Z</time>
      </trkpt>
      <trkpt lat="43.96541" lon="2.27413">
        <ele>301</ele>
        <time>2016-09-11T08:17:58.000Z</time>
      </trkpt>
      <trkpt lat="43.96534" lon="2.27417">
        <ele>299</ele>
        <time>2016-09-11T08:18:08.000Z</time>
      </trkpt>
      <trkpt lat="43.96526" lon="2.27424">
        <ele>299</ele>
        <time>2016-09-11T08:18:14.000Z</time>
      </trkpt>
      <trkpt lat="43.96519" lon="2.27429">
        <ele>298</ele>
        <time>2016-09-11T08:18:20.000Z</time>
      </trkpt>
      <trkpt lat="43.96508" lon="2.27434">
        <ele>296</ele>
        <time>2016-09-11T08:18:30.000Z</time>
      </trkpt>
      <trkpt lat="43.96495" lon="2.2744">
        <ele>293</ele>
        <time>2016-09-11T08:18:38.000Z</time>
      </trkpt>
      <trkpt lat="43.96482" lon="2.27446">
        <ele>290</ele>
        <time>2016-09-11T08:18:50.000Z</time>
      </trkpt>
      <trkpt lat="43.96473" lon="2.27448">
        <ele>288</ele>
        <time>2016-09-11T08:18:57.000Z</time>
      </trkpt>
      <trkpt lat="43.96464" lon="2.27449">
        <ele>285</ele>
        <time>2016-09-11T08:19:03.000Z</time>
      </trkpt>
      <trkpt lat="43.96454" lon="2.27455">
        <ele>284</ele>
        <time>2016-09-11T08:19:10.000Z</time>
      </trkpt>
      <trkpt lat="43.96448" lon="2.27459">
        <ele>283</ele>
        <time>2016-09-11T08:27:02.000Z</time>
      </trkpt>
      <trkpt lat="43.96442" lon="2.27466">
        <ele>282</ele>
        <time>2016-09-11T08:28:01.000Z</time>
      </trkpt>
      <trkpt lat="43.96438" lon="2.27468">
        <ele>282</ele>
        <time>2016-09-11T08:28:08.000Z</time>
      </trkpt>
      <trkpt lat="43.96432" lon="2.27474">
        <ele>282</ele>
        <time>2016-09-11T08:28:16.000Z</time>
      </trkpt>
      <trkpt lat="43.96426" lon="2.27477">
        <ele>281</ele>
        <time>2016-09-11T08:28:23.000Z</time>
      </trkpt>
      <trkpt lat="43.96416" lon="2.2748">
        <ele>280</ele>
        <time>2016-09-11T08:28:26.000Z</time>
      </trkpt>
      <trkpt lat="43.96411" lon="2.27484">
        <ele>279</ele>
        <time>2016-09-11T08:28:33.000Z</time>
      </trkpt>
      <trkpt lat="43.96403" lon="2.27487">
        <ele>279</ele>
        <time>2016-09-11T08:28:36.000Z</time>
      </trkpt>
      <trkpt lat="43.96395" lon="2.27489">
        <ele>278</ele>
        <time>2016-09-11T08:28:43.000Z</time>
      </trkpt>
      <trkpt lat="43.96383" lon="2.27499">
        <ele>277</ele>
        <time>2016-09-11T08:28:52.000Z</time>
      </trkpt>
      <trkpt lat="43.96371" lon="2.27504">
        <ele>276</ele>
        <time>2016-09-11T08:29:00.000Z</time>
      </trkpt>
      <trkpt lat="43.96362" lon="2.27511">
        <ele>275</ele>
        <time>2016-09-11T08:29:07.000Z</time>
      </trkpt>
      <trkpt lat="43.96348" lon="2.27518">
        <ele>273</ele>
        <time>2016-09-11T08:29:15.000Z</time>
      </trkpt>
      <trkpt lat="43.96336" lon="2.27524">
        <ele>272</ele>
        <time>2016-09-11T08:29:24.000Z</time>
      </trkpt>
      <trkpt lat="43.96328" lon="2.27531">
        <ele>270</ele>
        <time>2016-09-11T08:29:31.000Z</time>
      </trkpt>
      <trkpt lat="43.96321" lon="2.27535">
        <ele>269</ele>
        <time>2016-09-11T08:29:36.000Z</time>
      </trkpt>
      <trkpt lat="43.96314" lon="2.27538">
        <ele>269</ele>
        <time>2016-09-11T08:29:46.000Z</time>
      </trkpt>
      <trkpt lat="43.96307" lon="2.2754">
        <ele>268</ele>
        <time>2016-09-11T08:29:49.000Z</time>
      </trkpt>
      <trkpt lat="43.96298" lon="2.27546">
        <ele>266</ele>
        <time>2016-09-11T08:29:53.000Z</time>
      </trkpt>
      <trkpt lat="43.96291" lon="2.27551">
        <ele>265</ele>
        <time>2016-09-11T08:30:03.000Z</time>
      </trkpt>
      <trkpt lat="43.96285" lon="2.27555">
        <ele>265</ele>
        <time>2016-09-11T08:30:06.000Z</time>
      </trkpt>
      <trkpt lat="43.96275" lon="2.27561">
        <ele>263</ele>
        <time>2016-09-11T08:30:14.000Z</time>
      </trkpt>
      <trkpt lat="43.96267" lon="2.27568">
        <ele>263</ele>
        <time>2016-09-11T08:30:21.000Z</time>
      </trkpt>
      <trkpt lat="43.96254" lon="2.27574">
        <ele>263</ele>
        <time>2016-09-11T08:30:31.000Z</time>
      </trkpt>
      <trkpt lat="43.96239" lon="2.27583">
        <ele>262</ele>
        <time>2016-09-11T08:30:42.000Z</time>
      </trkpt>
      <trkpt lat="43.96229" lon="2.27591">
        <ele>261</ele>
        <time>2016-09-11T08:30:51.000Z</time>
      </trkpt>
      <trkpt lat="43.96219" lon="2.27598">
        <ele>260</ele>
        <time>2016-09-11T08:31:00.000Z</time>
      </trkpt>
      <trkpt lat="43.96215" lon="2.276">
        <ele>260</ele>
        <time>2016-09-11T08:31:02.000Z</time>
      </trkpt>
      <trkpt lat="43.96208" lon="2.27607">
        <ele>258</ele>
        <time>2016-09-11T08:31:12.000Z</time>
      </trkpt>
      <trkpt lat="43.96201" lon="2.27613">
        <ele>258</ele>
        <time>2016-09-11T08:31:19.000Z</time>
      </trkpt>
      <trkpt lat="43.96191" lon="2.2762">
        <ele>257</ele>
        <time>2016-09-11T08:31:28.000Z</time>
      </trkpt>
      <trkpt lat="43.96179" lon="2.27629">
        <ele>253</ele>
        <time>2016-09-11T08:31:38.000Z</time>
      </trkpt>
      <trkpt lat="43.96168" lon="2.27632">
        <ele>251</ele>
        <time>2016-09-11T08:31:47.000Z</time>
      </trkpt>
      <trkpt lat="43.96157" lon="2.27629">
        <ele>250</ele>
        <time>2016-09-11T08:31:57.000Z</time>
      </trkpt>
      <trkpt lat="43.96146" lon="2.27614">
        <ele>253</ele>
        <time>2016-09-11T08:32:08.000Z</time>
      </trkpt>
      <trkpt lat="43.96139" lon="2.27602">
        <ele>252</ele>
        <time>2016-09-11T08:32:17.000Z</time>
      </trkpt>
      <trkpt lat="43.96131" lon="2.27591">
        <ele>253</ele>
        <time>2016-09-11T08:32:26.000Z</time>
      </trkpt>
      <trkpt lat="43.96123" lon="2.27582">
        <ele>252</ele>
        <time>2016-09-11T08:32:35.000Z</time>
      </trkpt>
      <trkpt lat="43.96114" lon="2.27574">
        <ele>250</ele>
        <time>2016-09-11T08:32:43.000Z</time>
      </trkpt>
      <trkpt lat="43.96104" lon="2.27565">
        <ele>250</ele>
        <time>2016-09-11T08:32:52.000Z</time>
      </trkpt>
      <trkpt lat="43.96096" lon="2.27556">
        <ele>249</ele>
        <time>2016-09-11T08:33:00.000Z</time>
      </trkpt>
      <trkpt lat="43.96086" lon="2.27547">
        <ele>246</ele>
        <time>2016-09-11T08:33:09.000Z</time>
      </trkpt>
      <trkpt lat="43.96077" lon="2.27539">
        <ele>247</ele>
        <time>2016-09-11T08:33:17.000Z</time>
      </trkpt>
      <trkpt lat="43.96065" lon="2.27537">
        <ele>247</ele>
        <time>2016-09-11T08:33:25.000Z</time>
      </trkpt>
      <trkpt lat="43.96055" lon="2.27538">
        <ele>248</ele>
        <time>2016-09-11T08:33:33.000Z</time>
      </trkpt>
      <trkpt lat="43.96045" lon="2.27546">
        <ele>250</ele>
        <time>2016-09-11T08:33:42.000Z</time>
      </trkpt>
      <trkpt lat="43.96032" lon="2.27553">
        <ele>251</ele>
        <time>2016-09-11T08:33:53.000Z</time>
      </trkpt>
      <trkpt lat="43.96022" lon="2.27564">
        <ele>248</ele>
        <time>2016-09-11T08:34:02.000Z</time>
      </trkpt>
      <trkpt lat="43.96012" lon="2.27575">
        <ele>247</ele>
        <time>2016-09-11T08:34:11.000Z</time>
      </trkpt>
      <trkpt lat="43.96004" lon="2.27585">
        <ele>245</ele>
        <time>2016-09-11T08:34:19.000Z</time>
      </trkpt>
      <trkpt lat="43.95994" lon="2.276">
        <ele>245</ele>
        <time>2016-09-11T08:34:29.000Z</time>
      </trkpt>
      <trkpt lat="43.95987" lon="2.27611">
        <ele>243</ele>
        <time>2016-09-11T08:34:36.000Z</time>
      </trkpt>
      <trkpt lat="43.9598" lon="2.27626">
        <ele>240</ele>
        <time>2016-09-11T08:34:46.000Z</time>
      </trkpt>
      <trkpt lat="43.95972" lon="2.2764">
        <ele>239</ele>
        <time>2016-09-11T08:34:55.000Z</time>
      </trkpt>
      <trkpt lat="43.95965" lon="2.27652">
        <ele>238</ele>
        <time>2016-09-11T08:35:03.000Z</time>
      </trkpt>
      <trkpt lat="43.95956" lon="2.27662">
        <ele>238</ele>
        <time>2016-09-11T08:35:12.000Z</time>
      </trkpt>
      <trkpt lat="43.95949" lon="2.2767">
        <ele>238</ele>
        <time>2016-09-11T08:35:20.000Z</time>
      </trkpt>
      <trkpt lat="43.95943" lon="2.27676">
        <ele>238</ele>
        <time>2016-09-11T08:35:27.000Z</time>
      </trkpt>
      <trkpt lat="43.95938" lon="2.27681">
        <ele>239</ele>
        <time>2016-09-11T08:35:34.000Z</time>
      </trkpt>
      <trkpt lat="43.95934" lon="2.27684">
        <ele>239</ele>
        <time>2016-09-11T08:35:42.000Z</time>
      </trkpt>
      <trkpt lat="43.95929" lon="2.27694">
        <ele>239</ele>
        <time>2016-09-11T08:35:47.000Z</time>
      </trkpt>
      <trkpt lat="43.95926" lon="2.27713">
        <ele>240</ele>
        <time>2016-09-11T08:35:56.000Z</time>
      </trkpt>
      <trkpt lat="43.95925" lon="2.27724">
        <ele>241</ele>
        <time>2016-09-11T08:36:04.000Z</time>
      </trkpt>
      <trkpt lat="43.95924" lon="2.27733">
        <ele>243</ele>
        <time>2016-09-11T08:36:32.000Z</time>
      </trkpt>
      <trkpt lat="43.95919" lon="2.27741">
        <ele>244</ele>
        <time>2016-09-11T08:36:52.000Z</time>
      </trkpt>
      <trkpt lat="43.95908" lon="2.27744">
        <ele>244</ele>
        <time>2016-09-11T08:36:11.000Z</time>
      </trkpt>
      <trkpt lat="43.95899" lon="2.27739">
        <ele>243</ele>
        <time>2016-09-11T08:36:16.000Z</time>
      </trkpt>
      <trkpt lat="43.9589" lon="2.27735">
        <ele>242</ele>
        <time>2016-09-11T08:36:24.000Z</time>
      </trkpt>
      <trkpt lat="43.95881" lon="2.27731">
        <ele>241</ele>
        <time>2016-09-11T08:36:34.000Z</time>
      </trkpt>
      <trkpt lat="43.95873" lon="2.27729">
        <ele>240</ele>
        <time>2016-09-11T08:36:41.000Z</time>
      </trkpt>
      <trkpt lat="43.95869" lon="2.27727">
        <ele>240</ele>
        <time>2016-09-11T08:36:47.000Z</time>
      </trkpt>
      <trkpt lat="43.95861" lon="2.27723">
        <ele>239</ele>
        <time>2016-09-11T08:36:55.000Z</time>
      </trkpt>
      <trkpt lat="43.95852" lon="2.27725">
        <ele>239</ele>
        <time>2016-09-11T08:37:05.000Z</time>
      </trkpt>
      <trkpt lat="43.95846" lon="2.27731">
        <ele>239</ele>
        <time>2016-09-11T08:37:06.000Z</time>
      </trkpt>
      <trkpt lat="43.95843" lon="2.27741">
        <ele>239</ele>
        <time>2016-09-11T08:37:14.000Z</time>
      </trkpt>
      <trkpt lat="43.95844" lon="2.27754">
        <ele>239</ele>
        <time>2016-09-11T08:37:20.000Z</time>
      </trkpt>
      <trkpt lat="43.95843" lon="2.27762">
        <ele>239</ele>
        <time>2016-09-11T08:37:28.000Z</time>
      </trkpt>
      <trkpt lat="43.95843" lon="2.2777">
        <ele>239</ele>
        <time>2016-09-11T08:37:34.000Z</time>
      </trkpt>
      <trkpt lat="43.95844" lon="2.27783">
        <ele>240</ele>
        <time>2016-09-11T08:37:42.000Z</time>
      </trkpt>
      <trkpt lat="43.95841" lon="2.27805">
        <ele>241</ele>
        <time>2016-09-11T08:37:51.000Z</time>
      </trkpt>
      <trkpt lat="43.95835" lon="2.27819">
        <ele>241</ele>
        <time>2016-09-11T08:37:57.000Z</time>
      </trkpt>
      <trkpt lat="43.9583" lon="2.27832">
        <ele>243</ele>
        <time>2016-09-11T08:38:06.000Z</time>
      </trkpt>
      <trkpt lat="43.95824" lon="2.27838">
        <ele>242</ele>
        <time>2016-09-11T08:38:14.000Z</time>
      </trkpt>
      <trkpt lat="43.95812" lon="2.27843">
        <ele>243</ele>
        <time>2016-09-11T08:38:22.000Z</time>
      </trkpt>
      <trkpt lat="43.95805" lon="2.27841">
        <ele>241</ele>
        <time>2016-09-11T08:38:30.000Z</time>
      </trkpt>
      <trkpt lat="43.95802" lon="2.27842">
        <ele>241</ele>
        <time>2016-09-11T08:38:38.000Z</time>
      </trkpt>
      <trkpt lat="43.95795" lon="2.2784">
        <ele>241</ele>
        <time>2016-09-11T08:38:45.000Z</time>
      </trkpt>
      <trkpt lat="43.95789" lon="2.27838">
        <ele>240</ele>
        <time>2016-09-11T08:38:52.000Z</time>
      </trkpt>
      <trkpt lat="43.9578" lon="2.27836">
        <ele>240</ele>
        <time>2016-09-11T08:39:00.000Z</time>
      </trkpt>
      <trkpt lat="43.95773" lon="2.27834">
        <ele>240</ele>
        <time>2016-09-11T08:39:07.000Z</time>
      </trkpt>
      <trkpt lat="43.95765" lon="2.27829">
        <ele>239</ele>
        <time>2016-09-11T08:39:15.000Z</time>
      </trkpt>
      <trkpt lat="43.95758" lon="2.2783">
        <ele>239</ele>
        <time>2016-09-11T08:39:23.000Z</time>
      </trkpt>
      <trkpt lat="43.9575" lon="2.2783">
        <ele>239</ele>
        <time>2016-09-11T08:39:31.000Z</time>
      </trkpt>
      <trkpt lat="43.95738" lon="2.27831">
        <ele>239</ele>
        <time>2016-09-11T08:39:40.000Z</time>
      </trkpt>
      <trkpt lat="43.9573" lon="2.27831">
        <ele>239</ele>
        <time>2016-09-11T08:39:47.000Z</time>
      </trkpt>
      <trkpt lat="43.95723" lon="2.27834">
        <ele>240</ele>
        <time>2016-09-11T08:39:56.000Z</time>
      </trkpt>
      <trkpt lat="43.95714" lon="2.27831">
        <ele>240</ele>
        <time>2016-09-11T08:40:03.000Z</time>
      </trkpt>
      <trkpt lat="43.95706" lon="2.27827">
        <ele>241</ele>
        <time>2016-09-11T08:40:09.000Z</time>
      </trkpt>
      <trkpt lat="43.957" lon="2.27824">
        <ele>241</ele>
        <time>2016-09-11T08:40:17.000Z</time>
      </trkpt>
      <trkpt lat="43.95693" lon="2.27815">
        <ele>241</ele>
        <time>2016-09-11T08:40:25.000Z</time>
      </trkpt>
      <trkpt lat="43.95688" lon="2.27809">
        <ele>242</ele>
        <time>2016-09-11T08:40:32.000Z</time>
      </trkpt>
      <trkpt lat="43.95682" lon="2.27804">
        <ele>242</ele>
        <time>2016-09-11T08:40:39.000Z</time>
      </trkpt>
      <trkpt lat="43.9568" lon="2.27797">
        <ele>241</ele>
        <time>2016-09-11T08:40:46.000Z</time>
      </trkpt>
      <trkpt lat="43.95675" lon="2.2779">
        <ele>241</ele>
        <time>2016-09-11T08:40:53.000Z</time>
      </trkpt>
      <trkpt lat="43.95668" lon="2.27783">
        <ele>242</ele>
        <time>2016-09-11T08:40:59.000Z</time>
      </trkpt>
      <trkpt lat="43.95661" lon="2.27771">
        <ele>241</ele>
        <time>2016-09-11T08:41:07.000Z</time>
      </trkpt>
      <trkpt lat="43.95656" lon="2.27759">
        <ele>240</ele>
        <time>2016-09-11T08:41:16.000Z</time>
      </trkpt>
      <trkpt lat="43.95652" lon="2.2775">
        <ele>240</ele>
        <time>2016-09-11T08:41:25.000Z</time>
      </trkpt>
      <trkpt lat="43.95648" lon="2.27743">
        <ele>239</ele>
        <time>2016-09-11T08:41:33.000Z</time>
      </trkpt>
      <trkpt lat="43.95641" lon="2.27735">
        <ele>239</ele>
        <time>2016-09-11T08:41:41.000Z</time>
      </trkpt>
      <trkpt lat="43.95634" lon="2.2773">
        <ele>239</ele>
        <time>2016-09-11T08:41:47.000Z</time>
      </trkpt>
      <trkpt lat="43.95627" lon="2.27726">
        <ele>239</ele>
        <time>2016-09-11T08:41:55.000Z</time>
      </trkpt>
      <trkpt lat="43.9562" lon="2.27721">
        <ele>238</ele>
        <time>2016-09-11T08:42:05.000Z</time>
      </trkpt>
      <trkpt lat="43.95613" lon="2.2772">
        <ele>238</ele>
        <time>2016-09-11T08:42:04.000Z</time>
      </trkpt>
      <trkpt lat="43.95606" lon="2.27717">
        <ele>238</ele>
        <time>2016-09-11T08:42:12.000Z</time>
      </trkpt>
      <trkpt lat="43.956" lon="2.27712">
        <ele>237</ele>
        <time>2016-09-11T08:42:19.000Z</time>
      </trkpt>
      <trkpt lat="43.95595" lon="2.27713">
        <ele>237</ele>
        <time>2016-09-11T08:42:29.000Z</time>
      </trkpt>
      <trkpt lat="43.95589" lon="2.27711">
        <ele>236</ele>
        <time>2016-09-11T08:42:37.000Z</time>
      </trkpt>
      <trkpt lat="43.95582" lon="2.27712">
        <ele>236</ele>
        <time>2016-09-11T08:42:45.000Z</time>
      </trkpt>
      <trkpt lat="43.95575" lon="2.27713">
        <ele>236</ele>
        <time>2016-09-11T08:42:55.000Z</time>
      </trkpt>
      <trkpt lat="43.95568" lon="2.2772">
        <ele>236</ele>
        <time>2016-09-11T08:43:05.000Z</time>
      </trkpt>
      <trkpt lat="43.9556" lon="2.27727">
        <ele>236</ele>
        <time>2016-09-11T08:43:03.000Z</time>
      </trkpt>
      <trkpt lat="43.95552" lon="2.2774">
        <ele>236</ele>
        <time>2016-09-11T08:43:10.000Z</time>
      </trkpt>
      <trkpt lat="43.95545" lon="2.27745">
        <ele>236</ele>
        <time>2016-09-11T08:43:17.000Z</time>
      </trkpt>
      <trkpt lat="43.95538" lon="2.27753">
        <ele>235</ele>
        <time>2016-09-11T08:43:25.000Z</time>
      </trkpt>
      <trkpt lat="43.95531" lon="2.27761">
        <ele>234</ele>
        <time>2016-09-11T08:43:33.000Z</time>
      </trkpt>
      <trkpt lat="43.95524" lon="2.2777">
        <ele>233</ele>
        <time>2016-09-11T08:43:42.000Z</time>
      </trkpt>
      <trkpt lat="43.95515" lon="2.27785">
        <ele>228</ele>
        <time>2016-09-11T08:43:51.000Z</time>
      </trkpt>
      <trkpt lat="43.9551" lon="2.27791">
        <ele>225</ele>
        <time>2016-09-11T08:43:59.000Z</time>
      </trkpt>
      <trkpt lat="43.95506" lon="2.278">
        <ele>222</ele>
        <time>2016-09-11T08:44:06.000Z</time>
      </trkpt>
      <trkpt lat="43.955" lon="2.27808">
        <ele>218</ele>
        <time>2016-09-11T08:44:14.000Z</time>
      </trkpt>
      <trkpt lat="43.95493" lon="2.27814">
        <ele>217</ele>
        <time>2016-09-11T08:44:21.000Z</time>
      </trkpt>
      <trkpt lat="43.95487" lon="2.27821">
        <ele>218</ele>
        <time>2016-09-11T08:44:41.000Z</time>
      </trkpt>
      <trkpt lat="43.95478" lon="2.27824">
        <ele>217</ele>
        <time>2016-09-11T08:44:31.000Z</time>
      </trkpt>
      <trkpt lat="43.95473" lon="2.27824">
        <ele>218</ele>
        <time>2016-09-11T08:44:37.000Z</time>
      </trkpt>
      <trkpt lat="43.95465" lon="2.27822">
        <ele>217</ele>
        <time>2016-09-11T08:44:45.000Z</time>
      </trkpt>
      <trkpt lat="43.95454" lon="2.27817">
        <ele>218</ele>
        <time>2016-09-11T08:44:54.000Z</time>
      </trkpt>
      <trkpt lat="43.95442" lon="2.27808">
        <ele>217</ele>
        <time>2016-09-11T08:45:03.000Z</time>
      </trkpt>
      <trkpt lat="43.95432" lon="2.27805">
        <ele>218</ele>
        <time>2016-09-11T08:45:14.000Z</time>
      </trkpt>
      <trkpt lat="43.95422" lon="2.27797">
        <ele>218</ele>
        <time>2016-09-11T08:45:23.000Z</time>
      </trkpt>
      <trkpt lat="43.95415" lon="2.27795">
        <ele>218</ele>
        <time>2016-09-11T08:45:30.000Z</time>
      </trkpt>
      <trkpt lat="43.95406" lon="2.27791">
        <ele>219</ele>
        <time>2016-09-11T08:45:37.000Z</time>
      </trkpt>
      <trkpt lat="43.95401" lon="2.27789">
        <ele>220</ele>
        <time>2016-09-11T08:45:43.000Z</time>
      </trkpt>
      <trkpt lat="43.95387" lon="2.27776">
        <ele>221</ele>
        <time>2016-09-11T08:45:53.000Z</time>
      </trkpt>
      <trkpt lat="43.95379" lon="2.2777">
        <ele>221</ele>
        <time>2016-09-11T08:46:02.000Z</time>
      </trkpt>
      <trkpt lat="43.95371" lon="2.2776">
        <ele>220</ele>
        <time>2016-09-11T08:46:12.000Z</time>
      </trkpt>
      <trkpt lat="43.95366" lon="2.27754">
        <ele>221</ele>
        <time>2016-09-11T08:46:20.000Z</time>
      </trkpt>
      <trkpt lat="43.95362" lon="2.27743">
        <ele>221</ele>
        <time>2016-09-11T08:46:29.000Z</time>
      </trkpt>
      <trkpt lat="43.95361" lon="2.27734">
        <ele>222</ele>
        <time>2016-09-11T08:46:37.000Z</time>
      </trkpt>
      <trkpt lat="43.95358" lon="2.27722">
        <ele>226</ele>
        <time>2016-09-11T08:46:46.000Z</time>
      </trkpt>
      <trkpt lat="43.95356" lon="2.27709">
        <ele>229</ele>
        <time>2016-09-11T08:46:54.000Z</time>
      </trkpt>
      <trkpt lat="43.95352" lon="2.277">
        <ele>230</ele>
        <time>2016-09-11T08:47:04.000Z</time>
      </trkpt>
      <trkpt lat="43.95346" lon="2.27692">
        <ele>231</ele>
        <time>2016-09-11T08:47:13.000Z</time>
      </trkpt>
      <trkpt lat="43.95338" lon="2.27685">
        <ele>232</ele>
        <time>2016-09-11T08:47:21.000Z</time>
      </trkpt>
      <trkpt lat="43.95329" lon="2.27677">
        <ele>236</ele>
        <time>2016-09-11T08:47:30.000Z</time>
      </trkpt>
      <trkpt lat="43.95325" lon="2.27667">
        <ele>236</ele>
        <time>2016-09-11T08:47:40.000Z</time>
      </trkpt>
      <trkpt lat="43.95318" lon="2.27646">
        <ele>236</ele>
        <time>2016-09-11T08:47:50.000Z</time>
      </trkpt>
      <trkpt lat="43.95316" lon="2.27634">
        <ele>236</ele>
        <time>2016-09-11T08:47:59.000Z</time>
      </trkpt>
      <trkpt lat="43.95316" lon="2.27619">
        <ele>236</ele>
        <time>2016-09-11T08:48:09.000Z</time>
      </trkpt>
      <trkpt lat="43.95317" lon="2.27608">
        <ele>237</ele>
        <time>2016-09-11T08:48:14.000Z</time>
      </trkpt>
      <trkpt lat="43.95322" lon="2.2759">
        <ele>239</ele>
        <time>2016-09-11T08:48:23.000Z</time>
      </trkpt>
      <trkpt lat="43.95327" lon="2.27581">
        <ele>241</ele>
        <time>2016-09-11T08:48:52.000Z</time>
      </trkpt>
      <trkpt lat="43.9533" lon="2.27573">
        <ele>242</ele>
        <time>2016-09-11T08:48:31.000Z</time>
      </trkpt>
      <trkpt lat="43.95325" lon="2.27573">
        <ele>242</ele>
        <time>2016-09-11T08:48:35.000Z</time>
      </trkpt>
      <trkpt lat="43.95318" lon="2.2758">
        <ele>243</ele>
        <time>2016-09-11T08:48:43.000Z</time>
      </trkpt>
      <trkpt lat="43.9531" lon="2.27583">
        <ele>244</ele>
        <time>2016-09-11T08:48:51.000Z</time>
      </trkpt>
      <trkpt lat="43.95301" lon="2.27579">
        <ele>244</ele>
        <time>2016-09-11T08:48:59.000Z</time>
      </trkpt>
      <trkpt lat="43.95295" lon="2.27578">
        <ele>243</ele>
        <time>2016-09-11T08:49:08.000Z</time>
      </trkpt>
      <trkpt lat="43.95287" lon="2.27575">
        <ele>243</ele>
        <time>2016-09-11T08:49:16.000Z</time>
      </trkpt>
      <trkpt lat="43.95283" lon="2.27576">
        <ele>243</ele>
        <time>2016-09-11T08:49:17.000Z</time>
      </trkpt>
      <trkpt lat="43.95278" lon="2.27575">
        <ele>242</ele>
        <time>2016-09-11T08:49:25.000Z</time>
      </trkpt>
      <trkpt lat="43.95264" lon="2.27566">
        <ele>241</ele>
        <time>2016-09-11T08:49:35.000Z</time>
      </trkpt>
      <trkpt lat="43.95255" lon="2.27561">
        <ele>243</ele>
        <time>2016-09-11T08:49:43.000Z</time>
      </trkpt>
      <trkpt lat="43.95244" lon="2.27556">
        <ele>243</ele>
        <time>2016-09-11T08:49:53.000Z</time>
      </trkpt>
      <trkpt lat="43.95235" lon="2.27548">
        <ele>242</ele>
        <time>2016-09-11T08:50:01.000Z</time>
      </trkpt>
      <trkpt lat="43.95228" lon="2.27545">
        <ele>243</ele>
        <time>2016-09-11T08:50:08.000Z</time>
      </trkpt>
      <trkpt lat="43.9522" lon="2.27542">
        <ele>243</ele>
        <time>2016-09-11T08:50:17.000Z</time>
      </trkpt>
      <trkpt lat="43.95212" lon="2.27537">
        <ele>244</ele>
        <time>2016-09-11T08:50:25.000Z</time>
      </trkpt>
      <trkpt lat="43.95206" lon="2.27526">
        <ele>243</ele>
        <time>2016-09-11T08:50:32.000Z</time>
      </trkpt>
      <trkpt lat="43.95198" lon="2.27514">
        <ele>241</ele>
        <time>2016-09-11T08:50:39.000Z</time>
      </trkpt>
      <trkpt lat="43.95193" lon="2.27503">
        <ele>241</ele>
        <time>2016-09-11T08:50:47.000Z</time>
      </trkpt>
      <trkpt lat="43.95187" lon="2.27495">
        <ele>240</ele>
        <time>2016-09-11T08:50:54.000Z</time>
      </trkpt>
      <trkpt lat="43.95182" lon="2.27488">
        <ele>241</ele>
        <time>2016-09-11T08:51:01.000Z</time>
      </trkpt>
      <trkpt lat="43.95175" lon="2.27482">
        <ele>241</ele>
        <time>2016-09-11T08:51:09.000Z</time>
      </trkpt>
      <trkpt lat="43.95165" lon="2.27468">
        <ele>240</ele>
        <time>2016-09-11T08:51:17.000Z</time>
      </trkpt>
      <trkpt lat="43.95158" lon="2.27461">
        <ele>241</ele>
        <time>2016-09-11T08:51:25.000Z</time>
      </trkpt>
      <trkpt lat="43.95149" lon="2.27451">
        <ele>241</ele>
        <time>2016-09-11T08:51:32.000Z</time>
      </trkpt>
      <trkpt lat="43.9514" lon="2.27442">
        <ele>239</ele>
        <time>2016-09-11T08:51:40.000Z</time>
      </trkpt>
      <trkpt lat="43.95135" lon="2.27439">
        <ele>239</ele>
        <time>2016-09-11T08:51:46.000Z</time>
      </trkpt>
      <trkpt lat="43.95128" lon="2.27433">
        <ele>236</ele>
        <time>2016-09-11T08:51:53.000Z</time>
      </trkpt>
      <trkpt lat="43.95123" lon="2.27427">
        <ele>233</ele>
        <time>2016-09-11T08:51:59.000Z</time>
      </trkpt>
      <trkpt lat="43.95122" lon="2.27423">
        <ele>231</ele>
        <time>2016-09-11T08:52:05.000Z</time>
      </trkpt>
      <trkpt lat="43.95113" lon="2.27416">
        <ele>229</ele>
        <time>2016-09-11T08:52:13.000Z</time>
      </trkpt>
      <trkpt lat="43.95108" lon="2.27409">
        <ele>227</ele>
        <time>2016-09-11T08:52:23.000Z</time>
      </trkpt>
      <trkpt lat="43.95103" lon="2.27401">
        <ele>225</ele>
        <time>2016-09-11T08:52:30.000Z</time>
      </trkpt>
      <trkpt lat="43.95098" lon="2.27394">
        <ele>224</ele>
        <time>2016-09-11T08:52:38.000Z</time>
      </trkpt>
      <trkpt lat="43.95094" lon="2.27386">
        <ele>224</ele>
        <time>2016-09-11T08:52:38.000Z</time>
      </trkpt>
      <trkpt lat="43.9509" lon="2.27379">
        <ele>222</ele>
        <time>2016-09-11T08:52:45.000Z</time>
      </trkpt>
      <trkpt lat="43.95089" lon="2.27374">
        <ele>222</ele>
        <time>2016-09-11T08:52:48.000Z</time>
      </trkpt>
      <trkpt lat="43.95085" lon="2.27365">
        <ele>224</ele>
        <time>2016-09-11T08:52:56.000Z</time>
      </trkpt>
      <trkpt lat="43.95081" lon="2.27356">
        <ele>224</ele>
        <time>2016-09-11T08:53:04.000Z</time>
      </trkpt>
      <trkpt lat="43.9508" lon="2.27345">
        <ele>222</ele>
        <time>2016-09-11T08:53:13.000Z</time>
      </trkpt>
      <trkpt lat="43.9508" lon="2.27336">
        <ele>221</ele>
        <time>2016-09-11T08:53:21.000Z</time>
      </trkpt>
      <trkpt lat="43.95081" lon="2.27328">
        <ele>219</ele>
        <time>2016-09-11T08:53:28.000Z</time>
      </trkpt>
      <trkpt lat="43.95082" lon="2.27315">
        <ele>217</ele>
        <time>2016-09-11T08:53:36.000Z</time>
      </trkpt>
      <trkpt lat="43.95083" lon="2.27303">
        <ele>215</ele>
        <time>2016-09-11T08:53:39.000Z</time>
      </trkpt>
      <trkpt lat="43.95085" lon="2.27293">
        <ele>215</ele>
        <time>2016-09-11T08:53:48.000Z</time>
      </trkpt>
      <trkpt lat="43.95089" lon="2.27283">
        <ele>207</ele>
        <time>2016-09-11T08:53:48.000Z</time>
      </trkpt>
      <trkpt lat="43.95092" lon="2.2727">
        <ele>207</ele>
        <time>2016-09-11T08:53:56.000Z</time>
      </trkpt>
      <trkpt lat="43.95092" lon="2.27259">
        <ele>208</ele>
        <time>2016-09-11T08:54:02.000Z</time>
      </trkpt>
      <trkpt lat="43.95097" lon="2.27238">
        <ele>207</ele>
        <time>2016-09-11T08:54:10.000Z</time>
      </trkpt>
      <trkpt lat="43.951" lon="2.27222">
        <ele>205</ele>
        <time>2016-09-11T08:54:17.000Z</time>
      </trkpt>
      <trkpt lat="43.95105" lon="2.27199">
        <ele>202</ele>
        <time>2016-09-11T08:54:26.000Z</time>
      </trkpt>
      <trkpt lat="43.95111" lon="2.27236">
        <ele>195</ele>
        <time>2016-09-11T08:54:58.000Z</time>
      </trkpt>
      <trkpt lat="43.95112" lon="2.27255">
        <ele>195</ele>
        <time>2016-09-11T08:55:13.000Z</time>
      </trkpt>
      <trkpt lat="43.95113" lon="2.27267">
        <ele>196</ele>
        <time>2016-09-11T08:55:34.000Z</time>
      </trkpt>
      <trkpt lat="43.95114" lon="2.27273">
        <ele>197</ele>
        <time>2016-09-11T08:55:49.000Z</time>
      </trkpt>
      <trkpt lat="43.95115" lon="2.27281">
        <ele>199</ele>
        <time>2016-09-11T08:56:16.000Z</time>
      </trkpt>
      <trkpt lat="43.95117" lon="2.27287">
        <ele>199</ele>
        <time>2016-09-11T08:56:22.000Z</time>
      </trkpt>
      <trkpt lat="43.95122" lon="2.27287">
        <ele>200</ele>
        <time>2016-09-11T08:54:34.000Z</time>
      </trkpt>
      <trkpt lat="43.95127" lon="2.27286">
        <ele>203</ele>
        <time>2016-09-11T08:55:11.000Z</time>
      </trkpt>
      <trkpt lat="43.9513" lon="2.27276">
        <ele>205</ele>
        <time>2016-09-11T08:55:41.000Z</time>
      </trkpt>
      <trkpt lat="43.95134" lon="2.27265">
        <ele>211</ele>
        <time>2016-09-11T08:56:53.000Z</time>
      </trkpt>
      <trkpt lat="43.95138" lon="2.27251">
        <ele>211</ele>
        <time>2016-09-11T08:57:05.000Z</time>
      </trkpt>
      <trkpt lat="43.95141" lon="2.27239">
        <ele>211</ele>
        <time>2016-09-11T08:57:15.000Z</time>
      </trkpt>
      <trkpt lat="43.95143" lon="2.2723">
        <ele>211</ele>
        <time>2016-09-11T08:57:23.000Z</time>
      </trkpt>
      <trkpt lat="43.95145" lon="2.2722">
        <ele>211</ele>
        <time>2016-09-11T08:57:32.000Z</time>
      </trkpt>
      <trkpt lat="43.95149" lon="2.27208">
        <ele>210</ele>
        <time>2016-09-11T08:57:43.000Z</time>
      </trkpt>
      <trkpt lat="43.95151" lon="2.27195">
        <ele>209</ele>
        <time>2016-09-11T08:57:54.000Z</time>
      </trkpt>
      <trkpt lat="43.95155" lon="2.27181">
        <ele>212</ele>
        <time>2016-09-11T08:58:37.000Z</time>
      </trkpt>
      <trkpt lat="43.95159" lon="2.27167">
        <ele>213</ele>
        <time>2016-09-11T08:59:00.000Z</time>
      </trkpt>
      <trkpt lat="43.95161" lon="2.27153">
        <ele>213</ele>
        <time>2016-09-11T08:59:12.000Z</time>
      </trkpt>
      <trkpt lat="43.95163" lon="2.27136">
        <ele>214</ele>
        <time>2016-09-11T08:59:36.000Z</time>
      </trkpt>
      <trkpt lat="43.95162" lon="2.27124">
        <ele>214</ele>
        <time>2016-09-11T08:59:46.000Z</time>
      </trkpt>
      <trkpt lat="43.95161" lon="2.27116">
        <ele>214</ele>
        <time>2016-09-11T08:59:53.000Z</time>
      </trkpt>
      <trkpt lat="43.95164" lon="2.27096">
        <ele>217</ele>
        <time>2016-09-11T09:00:40.000Z</time>
      </trkpt>
      <trkpt lat="43.95165" lon="2.27088">
        <ele>217</ele>
        <time>2016-09-11T09:00:47.000Z</time>
      </trkpt>
      <trkpt lat="43.95166" lon="2.27078">
        <ele>218</ele>
        <time>2016-09-11T09:01:05.000Z</time>
      </trkpt>
      <trkpt lat="43.95167" lon="2.27073">
        <ele>219</ele>
        <time>2016-09-11T09:01:20.000Z</time>
      </trkpt>
      <trkpt lat="43.95168" lon="2.27071">
        <ele>219</ele>
        <time>2016-09-11T09:01:22.000Z</time>
      </trkpt>
      <trkpt lat="43.9517" lon="2.27078">
        <ele>221</ele>
        <time>2016-09-11T09:01:48.000Z</time>
      </trkpt>
      <trkpt lat="43.95171" lon="2.27087">
        <ele>223</ele>
        <time>2016-09-11T09:02:17.000Z</time>
      </trkpt>
      <trkpt lat="43.95174" lon="2.27092">
        <ele>225</ele>
        <time>2016-09-11T09:02:43.000Z</time>
      </trkpt>
      <trkpt lat="43.95177" lon="2.27099">
        <ele>227</ele>
        <time>2016-09-11T09:03:10.000Z</time>
      </trkpt>
      <trkpt lat="43.95178" lon="2.27116">
        <ele>226</ele>
        <time>2016-09-11T09:03:25.000Z</time>
      </trkpt>
      <trkpt lat="43.9518" lon="2.27139">
        <ele>226</ele>
        <time>2016-09-11T09:03:44.000Z</time>
      </trkpt>
      <trkpt lat="43.95181" lon="2.27158">
        <ele>228</ele>
        <time>2016-09-11T09:04:20.000Z</time>
      </trkpt>
      <trkpt lat="43.95183" lon="2.27179">
        <ele>230</ele>
        <time>2016-09-11T09:04:58.000Z</time>
      </trkpt>
      <trkpt lat="43.95185" lon="2.27201">
        <ele>234</ele>
        <time>2016-09-11T09:05:57.000Z</time>
      </trkpt>
      <trkpt lat="43.95187" lon="2.27209">
        <ele>236</ele>
        <time>2016-09-11T09:06:25.000Z</time>
      </trkpt>
      <trkpt lat="43.95189" lon="2.27219">
        <ele>239</ele>
        <time>2016-09-11T09:07:05.000Z</time>
      </trkpt>
      <trkpt lat="43.95188" lon="2.27232">
        <ele>240</ele>
        <time>2016-09-11T09:07:26.000Z</time>
      </trkpt>
      <trkpt lat="43.95181" lon="2.27247">
        <ele>239</ele>
        <time>2016-09-11T09:07:41.000Z</time>
      </trkpt>
      <trkpt lat="43.95181" lon="2.27264">
        <ele>241</ele>
        <time>2016-09-11T09:08:15.000Z</time>
      </trkpt>
      <trkpt lat="43.95186" lon="2.27264">
        <ele>243</ele>
        <time>2016-09-11T09:08:42.000Z</time>
      </trkpt>
      <trkpt lat="43.95191" lon="2.27253">
        <ele>243</ele>
        <time>2016-09-11T09:08:52.000Z</time>
      </trkpt>
      <trkpt lat="43.95195" lon="2.2724">
        <ele>244</ele>
        <time>2016-09-11T09:09:15.000Z</time>
      </trkpt>
      <trkpt lat="43.95202" lon="2.27223">
        <ele>250</ele>
        <time>2016-09-11T09:10:33.000Z</time>
      </trkpt>
      <trkpt lat="43.95203" lon="2.27205">
        <ele>248</ele>
        <time>2016-09-11T09:10:47.000Z</time>
      </trkpt>
      <trkpt lat="43.95208" lon="2.27188">
        <ele>248</ele>
        <time>2016-09-11T09:11:02.000Z</time>
      </trkpt>
      <trkpt lat="43.95213" lon="2.2718">
        <ele>249</ele>
        <time>2016-09-11T09:11:21.000Z</time>
      </trkpt>
      <trkpt lat="43.95212" lon="2.27207">
        <ele>253</ele>
        <time>2016-09-11T09:12:24.000Z</time>
      </trkpt>
      <trkpt lat="43.95211" lon="2.27221">
        <ele>254</ele>
        <time>2016-09-11T09:12:47.000Z</time>
      </trkpt>
      <trkpt lat="43.95208" lon="2.27244">
        <ele>254</ele>
        <time>2016-09-11T09:13:06.000Z</time>
      </trkpt>
      <trkpt lat="43.95213" lon="2.27256">
        <ele>256</ele>
        <time>2016-09-11T09:13:38.000Z</time>
      </trkpt>
      <trkpt lat="43.95222" lon="2.27261">
        <ele>259</ele>
        <time>2016-09-11T09:14:20.000Z</time>
      </trkpt>
      <trkpt lat="43.95232" lon="2.27257">
        <ele>260</ele>
        <time>2016-09-11T09:14:42.000Z</time>
      </trkpt>
      <trkpt lat="43.95251" lon="2.27246">
        <ele>261</ele>
        <time>2016-09-11T09:15:17.000Z</time>
      </trkpt>
      <trkpt lat="43.95267" lon="2.27237">
        <ele>264</ele>
        <time>2016-09-11T09:16:07.000Z</time>
      </trkpt>
      <trkpt lat="43.95277" lon="2.27229">
        <ele>265</ele>
        <time>2016-09-11T09:16:31.000Z</time>
      </trkpt>
      <trkpt lat="43.95288" lon="2.27222">
        <ele>267</ele>
        <time>2016-09-11T09:17:06.000Z</time>
      </trkpt>
      <trkpt lat="43.95301" lon="2.27213">
        <ele>269</ele>
        <time>2016-09-11T09:17:43.000Z</time>
      </trkpt>
      <trkpt lat="43.95322" lon="2.27195">
        <ele>270</ele>
        <time>2016-09-11T09:18:22.000Z</time>
      </trkpt>
      <trkpt lat="43.95336" lon="2.2718">
        <ele>273</ele>
        <time>2016-09-11T09:19:13.000Z</time>
      </trkpt>
      <trkpt lat="43.95352" lon="2.27155">
        <ele>274</ele>
        <time>2016-09-11T09:19:50.000Z</time>
      </trkpt>
      <trkpt lat="43.95366" lon="2.27124">
        <ele>279</ele>
        <time>2016-09-11T09:21:12.000Z</time>
      </trkpt>
      <trkpt lat="43.95379" lon="2.27099">
        <ele>280</ele>
        <time>2016-09-11T09:21:48.000Z</time>
      </trkpt>
      <trkpt lat="43.95392" lon="2.27077">
        <ele>282</ele>
        <time>2016-09-11T09:22:32.000Z</time>
      </trkpt>
      <trkpt lat="43.95403" lon="2.27062">
        <ele>282</ele>
        <time>2016-09-11T09:22:50.000Z</time>
      </trkpt>
      <trkpt lat="43.95414" lon="2.27048">
        <ele>282</ele>
        <time>2016-09-11T09:23:07.000Z</time>
      </trkpt>
      <trkpt lat="43.95422" lon="2.2704">
        <ele>283</ele>
        <time>2016-09-11T09:23:29.000Z</time>
      </trkpt>
      <trkpt lat="43.95435" lon="2.27027">
        <ele>283</ele>
        <time>2016-09-11T09:17:36.000Z</time>
      </trkpt>
      <trkpt lat="43.95456" lon="2.27016">
        <ele>280</ele>
        <time>2016-09-11T09:18:02.000Z</time>
      </trkpt>
      <trkpt lat="43.95474" lon="2.27006">
        <ele>280</ele>
        <time>2016-09-11T09:18:24.000Z</time>
      </trkpt>
      <trkpt lat="43.95498" lon="2.26996">
        <ele>281</ele>
        <time>2016-09-11T09:19:02.000Z</time>
      </trkpt>
      <trkpt lat="43.95522" lon="2.26993">
        <ele>281</ele>
        <time>2016-09-11T09:19:29.000Z</time>
      </trkpt>
      <trkpt lat="43.95537" lon="2.26989">
        <ele>282</ele>
        <time>2016-09-11T09:19:58.000Z</time>
      </trkpt>
      <trkpt lat="43.95544" lon="2.26988">
        <ele>282</ele>
        <time>2016-09-11T09:20:06.000Z</time>
      </trkpt>
      <trkpt lat="43.95565" lon="2.26975">
        <ele>285</ele>
        <time>2016-09-11T09:21:02.000Z</time>
      </trkpt>
      <trkpt lat="43.95571" lon="2.26964">
        <ele>286</ele>
        <time>2016-09-11T09:20:36.000Z</time>
      </trkpt>
      <trkpt lat="43.9559" lon="2.26941">
        <ele>291</ele>
        <time>2016-09-11T09:21:27.000Z</time>
      </trkpt>
      <trkpt lat="43.95597" lon="2.26933">
        <ele>292</ele>
        <time>2016-09-11T09:21:35.000Z</time>
      </trkpt>
      <trkpt lat="43.95615" lon="2.26913">
        <ele>295</ele>
        <time>2016-09-11T09:22:19.000Z</time>
      </trkpt>
      <trkpt lat="43.95622" lon="2.26905">
        <ele>296</ele>
        <time>2016-09-11T09:22:28.000Z</time>
      </trkpt>
      <trkpt lat="43.95629" lon="2.26896">
        <ele>297</ele>
        <time>2016-09-11T09:22:36.000Z</time>
      </trkpt>
      <trkpt lat="43.95635" lon="2.26888">
        <ele>298</ele>
        <time>2016-09-11T09:22:44.000Z</time>
      </trkpt>
      <trkpt lat="43.95643" lon="2.26884">
        <ele>298</ele>
        <time>2016-09-11T09:22:55.000Z</time>
      </trkpt>
      <trkpt lat="43.95647" lon="2.26876">
        <ele>299</ele>
        <time>2016-09-11T09:23:06.000Z</time>
      </trkpt>
      <trkpt lat="43.95653" lon="2.26872">
        <ele>300</ele>
        <time>2016-09-11T09:23:14.000Z</time>
      </trkpt>
      <trkpt lat="43.95659" lon="2.26867">
        <ele>300</ele>
        <time>2016-09-11T09:23:23.000Z</time>
      </trkpt>
      <trkpt lat="43.95665" lon="2.26858">
        <ele>302</ele>
        <time>2016-09-11T09:23:30.000Z</time>
      </trkpt>
      <trkpt lat="43.95672" lon="2.26852">
        <ele>303</ele>
        <time>2016-09-11T09:23:39.000Z</time>
      </trkpt>
      <trkpt lat="43.95679" lon="2.26846">
        <ele>304</ele>
        <time>2016-09-11T09:23:48.000Z</time>
      </trkpt>
      <trkpt lat="43.95687" lon="2.2684">
        <ele>305</ele>
        <time>2016-09-11T09:23:56.000Z</time>
      </trkpt>
      <trkpt lat="43.95692" lon="2.26833">
        <ele>304</ele>
        <time>2016-09-11T09:24:05.000Z</time>
      </trkpt>
      <trkpt lat="43.95698" lon="2.2683">
        <ele>304</ele>
        <time>2016-09-11T09:24:12.000Z</time>
      </trkpt>
      <trkpt lat="43.95704" lon="2.26821">
        <ele>306</ele>
        <time>2016-09-11T09:24:19.000Z</time>
      </trkpt>
      <trkpt lat="43.95711" lon="2.26815">
        <ele>305</ele>
        <time>2016-09-11T09:24:28.000Z</time>
      </trkpt>
      <trkpt lat="43.95715" lon="2.26809">
        <ele>306</ele>
        <time>2016-09-11T09:24:30.000Z</time>
      </trkpt>
      <trkpt lat="43.95722" lon="2.26802">
        <ele>306</ele>
        <time>2016-09-11T09:24:37.000Z</time>
      </trkpt>
      <trkpt lat="43.95729" lon="2.26795">
        <ele>307</ele>
        <time>2016-09-11T09:24:44.000Z</time>
      </trkpt>
      <trkpt lat="43.95734" lon="2.26787">
        <ele>306</ele>
        <time>2016-09-11T09:24:52.000Z</time>
      </trkpt>
      <trkpt lat="43.95741" lon="2.26782">
        <ele>305</ele>
        <time>2016-09-11T09:25:01.000Z</time>
      </trkpt>
      <trkpt lat="43.9575" lon="2.26771">
        <ele>307</ele>
        <time>2016-09-11T09:25:10.000Z</time>
      </trkpt>
      <trkpt lat="43.95756" lon="2.26768">
        <ele>306</ele>
        <time>2016-09-11T09:25:17.000Z</time>
      </trkpt>
      <trkpt lat="43.95762" lon="2.2676">
        <ele>306</ele>
        <time>2016-09-11T09:25:25.000Z</time>
      </trkpt>
      <trkpt lat="43.95769" lon="2.26753">
        <ele>307</ele>
        <time>2016-09-11T09:25:33.000Z</time>
      </trkpt>
      <trkpt lat="43.95775" lon="2.26746">
        <ele>307</ele>
        <time>2016-09-11T09:25:40.000Z</time>
      </trkpt>
      <trkpt lat="43.95784" lon="2.2674">
        <ele>306</ele>
        <time>2016-09-11T09:25:48.000Z</time>
      </trkpt>
      <trkpt lat="43.95791" lon="2.26731">
        <ele>308</ele>
        <time>2016-09-11T09:25:56.000Z</time>
      </trkpt>
      <trkpt lat="43.95797" lon="2.26725">
        <ele>308</ele>
        <time>2016-09-11T09:26:03.000Z</time>
      </trkpt>
      <trkpt lat="43.95801" lon="2.2672">
        <ele>309</ele>
        <time>2016-09-11T09:26:08.000Z</time>
      </trkpt>
      <trkpt lat="43.95807" lon="2.26707">
        <ele>311</ele>
        <time>2016-09-11T09:26:17.000Z</time>
      </trkpt>
      <trkpt lat="43.95809" lon="2.267">
        <ele>313</ele>
        <time>2016-09-11T09:26:22.000Z</time>
      </trkpt>
      <trkpt lat="43.95813" lon="2.2669">
        <ele>314</ele>
        <time>2016-09-11T09:26:30.000Z</time>
      </trkpt>
      <trkpt lat="43.95816" lon="2.2668">
        <ele>317</ele>
        <time>2016-09-11T09:26:38.000Z</time>
      </trkpt>
      <trkpt lat="43.95815" lon="2.26673">
        <ele>317</ele>
        <time>2016-09-11T09:26:45.000Z</time>
      </trkpt>
      <trkpt lat="43.95814" lon="2.26666">
        <ele>317</ele>
        <time>2016-09-11T09:26:48.000Z</time>
      </trkpt>
      <trkpt lat="43.95814" lon="2.26657">
        <ele>318</ele>
        <time>2016-09-11T09:26:51.000Z</time>
      </trkpt>
      <trkpt lat="43.95817" lon="2.26652">
        <ele>317</ele>
        <time>2016-09-11T09:26:56.000Z</time>
      </trkpt>
      <trkpt lat="43.9582" lon="2.26642">
        <ele>317</ele>
        <time>2016-09-11T09:27:00.000Z</time>
      </trkpt>
      <trkpt lat="43.95824" lon="2.26633">
        <ele>317</ele>
        <time>2016-09-11T09:27:09.000Z</time>
      </trkpt>
      <trkpt lat="43.95829" lon="2.26624">
        <ele>317</ele>
        <time>2016-09-11T09:27:18.000Z</time>
      </trkpt>
      <trkpt lat="43.95833" lon="2.26615">
        <ele>318</ele>
        <time>2016-09-11T09:27:27.000Z</time>
      </trkpt>
      <trkpt lat="43.95836" lon="2.26608">
        <ele>317</ele>
        <time>2016-09-11T09:27:28.000Z</time>
      </trkpt>
      <trkpt lat="43.95839" lon="2.26601">
        <ele>317</ele>
        <time>2016-09-11T09:27:32.000Z</time>
      </trkpt>
      <trkpt lat="43.95843" lon="2.26591">
        <ele>317</ele>
        <time>2016-09-11T09:27:35.000Z</time>
      </trkpt>
      <trkpt lat="43.95847" lon="2.26583">
        <ele>317</ele>
        <time>2016-09-11T09:27:45.000Z</time>
      </trkpt>
      <trkpt lat="43.95853" lon="2.26571">
        <ele>317</ele>
        <time>2016-09-11T09:27:53.000Z</time>
      </trkpt>
      <trkpt lat="43.95857" lon="2.2656">
        <ele>318</ele>
        <time>2016-09-11T09:28:01.000Z</time>
      </trkpt>
      <trkpt lat="43.9586" lon="2.26553">
        <ele>319</ele>
        <time>2016-09-11T09:28:03.000Z</time>
      </trkpt>
      <trkpt lat="43.95864" lon="2.26542">
        <ele>319</ele>
        <time>2016-09-11T09:28:06.000Z</time>
      </trkpt>
      <trkpt lat="43.95868" lon="2.26527">
        <ele>320</ele>
        <time>2016-09-11T09:28:15.000Z</time>
      </trkpt>
      <trkpt lat="43.95873" lon="2.26516">
        <ele>320</ele>
        <time>2016-09-11T09:28:24.000Z</time>
      </trkpt>
      <trkpt lat="43.95877" lon="2.26503">
        <ele>321</ele>
        <time>2016-09-11T09:28:33.000Z</time>
      </trkpt>
      <trkpt lat="43.95881" lon="2.26492">
        <ele>321</ele>
        <time>2016-09-11T09:28:42.000Z</time>
      </trkpt>
      <trkpt lat="43.95884" lon="2.26479">
        <ele>321</ele>
        <time>2016-09-11T09:28:52.000Z</time>
      </trkpt>
      <trkpt lat="43.95886" lon="2.2647">
        <ele>321</ele>
        <time>2016-09-11T09:29:02.000Z</time>
      </trkpt>
      <trkpt lat="43.95884" lon="2.2646">
        <ele>322</ele>
        <time>2016-09-11T09:29:11.000Z</time>
      </trkpt>
      <trkpt lat="43.95884" lon="2.2645">
        <ele>322</ele>
        <time>2016-09-11T09:29:12.000Z</time>
      </trkpt>
      <trkpt lat="43.95887" lon="2.26442">
        <ele>323</ele>
        <time>2016-09-11T09:29:20.000Z</time>
      </trkpt>
      <trkpt lat="43.9589" lon="2.2643">
        <ele>323</ele>
        <time>2016-09-11T09:29:31.000Z</time>
      </trkpt>
      <trkpt lat="43.95894" lon="2.26422">
        <ele>324</ele>
        <time>2016-09-11T09:29:36.000Z</time>
      </trkpt>
      <trkpt lat="43.95898" lon="2.26414">
        <ele>325</ele>
        <time>2016-09-11T09:29:37.000Z</time>
      </trkpt>
      <trkpt lat="43.95902" lon="2.26408">
        <ele>325</ele>
        <time>2016-09-11T09:29:44.000Z</time>
      </trkpt>
      <trkpt lat="43.95907" lon="2.264">
        <ele>325</ele>
        <time>2016-09-11T09:29:52.000Z</time>
      </trkpt>
      <trkpt lat="43.95908" lon="2.26397">
        <ele>325</ele>
        <time>2016-09-11T09:29:55.000Z</time>
      </trkpt>
      <trkpt lat="43.9591" lon="2.26394">
        <ele>325</ele>
        <time>2016-09-11T09:29:58.000Z</time>
      </trkpt>
      <trkpt lat="43.95912" lon="2.2639">
        <ele>325</ele>
        <time>2016-09-11T09:30:01.000Z</time>
      </trkpt>
      <trkpt lat="43.95915" lon="2.26384">
        <ele>326</ele>
        <time>2016-09-11T09:30:06.000Z</time>
      </trkpt>
      <trkpt lat="43.95921" lon="2.2637">
        <ele>326</ele>
        <time>2016-09-11T09:30:16.000Z</time>
      </trkpt>
      <trkpt lat="43.95926" lon="2.26357">
        <ele>326</ele>
        <time>2016-09-11T09:30:26.000Z</time>
      </trkpt>
      <trkpt lat="43.95931" lon="2.26347">
        <ele>327</ele>
        <time>2016-09-11T09:30:35.000Z</time>
      </trkpt>
      <trkpt lat="43.95939" lon="2.26336">
        <ele>327</ele>
        <time>2016-09-11T09:30:46.000Z</time>
      </trkpt>
      <trkpt lat="43.95943" lon="2.26328">
        <ele>328</ele>
        <time>2016-09-11T09:30:51.000Z</time>
      </trkpt>
      <trkpt lat="43.95948" lon="2.26319">
        <ele>329</ele>
        <time>2016-09-11T09:31:01.000Z</time>
      </trkpt>
      <trkpt lat="43.95953" lon="2.26311">
        <ele>330</ele>
        <time>2016-09-11T09:31:09.000Z</time>
      </trkpt>
      <trkpt lat="43.95957" lon="2.26305">
        <ele>330</ele>
        <time>2016-09-11T09:31:16.000Z</time>
      </trkpt>
      <trkpt lat="43.9596" lon="2.26296">
        <ele>330</ele>
        <time>2016-09-11T09:31:16.000Z</time>
      </trkpt>
      <trkpt lat="43.9596" lon="2.26284">
        <ele>330</ele>
        <time>2016-09-11T09:31:25.000Z</time>
      </trkpt>
      <trkpt lat="43.95964" lon="2.26283">
        <ele>330</ele>
        <time>2016-09-11T09:31:35.000Z</time>
      </trkpt>
      <trkpt lat="43.95966" lon="2.26282">
        <ele>330</ele>
        <time>2016-09-11T09:31:37.000Z</time>
      </trkpt>
      <trkpt lat="43.95976" lon="2.26277">
        <ele>331</ele>
        <time>2016-09-11T09:31:46.000Z</time>
      </trkpt>
      <trkpt lat="43.95986" lon="2.26272">
        <ele>331</ele>
        <time>2016-09-11T09:31:56.000Z</time>
      </trkpt>
      <trkpt lat="43.95996" lon="2.26267">
        <ele>331</ele>
        <time>2016-09-11T09:32:05.000Z</time>
      </trkpt>
      <trkpt lat="43.96007" lon="2.26261">
        <ele>332</ele>
        <time>2016-09-11T09:32:14.000Z</time>
      </trkpt>
      <trkpt lat="43.96016" lon="2.26254">
        <ele>332</ele>
        <time>2016-09-11T09:32:23.000Z</time>
      </trkpt>
      <trkpt lat="43.96029" lon="2.26248">
        <ele>332</ele>
        <time>2016-09-11T09:32:26.000Z</time>
      </trkpt>
      <trkpt lat="43.96048" lon="2.26243">
        <ele>332</ele>
        <time>2016-09-11T09:32:48.000Z</time>
      </trkpt>
      <trkpt lat="43.96067" lon="2.26239">
        <ele>332</ele>
        <time>2016-09-11T09:33:10.000Z</time>
      </trkpt>
      <trkpt lat="43.96086" lon="2.26237">
        <ele>333</ele>
        <time>2016-09-11T09:33:42.000Z</time>
      </trkpt>
      <trkpt lat="43.96098" lon="2.26234">
        <ele>333</ele>
        <time>2016-09-11T09:33:55.000Z</time>
      </trkpt>
      <trkpt lat="43.96109" lon="2.26232">
        <ele>333</ele>
        <time>2016-09-11T09:34:08.000Z</time>
      </trkpt>
      <trkpt lat="43.96124" lon="2.26228">
        <ele>333</ele>
        <time>2016-09-11T09:34:38.000Z</time>
      </trkpt>
      <trkpt lat="43.96135" lon="2.26227">
        <ele>333</ele>
        <time>2016-09-11T09:34:44.000Z</time>
      </trkpt>
      <trkpt lat="43.96148" lon="2.26223">
        <ele>333</ele>
        <time>2016-09-11T09:35:00.000Z</time>
      </trkpt>
      <trkpt lat="43.9616" lon="2.26221">
        <ele>333</ele>
        <time>2016-09-11T09:35:13.000Z</time>
      </trkpt>
      <trkpt lat="43.96175" lon="2.26219">
        <ele>334</ele>
        <time>2016-09-11T09:35:40.000Z</time>
      </trkpt>
      <trkpt lat="43.96184" lon="2.26217">
        <ele>334</ele>
        <time>2016-09-11T09:34:51.000Z</time>
      </trkpt>
      <trkpt lat="43.96173" lon="2.26193">
        <ele>334</ele>
        <time>2016-09-11T09:35:14.000Z</time>
      </trkpt>
      <trkpt lat="43.96167" lon="2.26177">
        <ele>334</ele>
        <time>2016-09-11T09:35:30.000Z</time>
      </trkpt>
      <trkpt lat="43.96162" lon="2.26164">
        <ele>334</ele>
        <time>2016-09-11T09:35:42.000Z</time>
      </trkpt>
      <trkpt lat="43.96155" lon="2.26144">
        <ele>334</ele>
        <time>2016-09-11T09:36:00.000Z</time>
      </trkpt>
      <trkpt lat="43.96154" lon="2.26126">
        <ele>333</ele>
        <time>2016-09-11T09:36:15.000Z</time>
      </trkpt>
      <trkpt lat="43.96152" lon="2.26116">
        <ele>333</ele>
        <time>2016-09-11T09:36:23.000Z</time>
      </trkpt>
      <trkpt lat="43.9615" lon="2.261">
        <ele>333</ele>
        <time>2016-09-11T09:36:37.000Z</time>
      </trkpt>
      <trkpt lat="43.96151" lon="2.26079">
        <ele>332</ele>
        <time>2016-09-11T09:36:54.000Z</time>
      </trkpt>
      <trkpt lat="43.96152" lon="2.26062">
        <ele>332</ele>
        <time>2016-09-11T09:37:08.000Z</time>
      </trkpt>
      <trkpt lat="43.96169" lon="2.26066">
        <ele>333</ele>
        <time>2016-09-11T09:34:59.000Z</time>
      </trkpt>
    </trkseg>
  </trk>
</gpx>